<?xml version="1.0" encoding="UTF-8" standalone="no" ?>
<gpx xmlns="http://www.topografix.com/GPX/1/1" xmlns:xsi="http://www.w3.org/2001/XMLSchema-instance" xsi:schemaLocation="http://www.topografix.com/GPX/1/1 http://www.topografix.com/GPX/1/1/gpx.xsd" version="1.1" creator="VisuGPX - https://www.visugpx.com">
  <metadata>
    <name>LAP 2024 7Juin</name>
    <desc><![CDATA[Loire Atlantique à pied 2024
06/06/2024 Nantes Erdre-Cens-Gesvres 12.6km; 07/06/2024 la Chapelle sur Erdre Entre Gesvres et Erdre 22.5km; 08/06/2024 Oudon Les coteaux de la Loire19.4km; 09/06/2024 Nantes et ses drôles de machine 16.6km; 10/06/2024 Basse Indre 18.8km:11/06/2024 Château Thébaud la Maine 20.5km; 12/06/2024 Le Pellerin 21.7km; 13/06/2024 Le Pallet Sèvre et Sanguèze 11.5km]]></desc>
  </metadata>
  <wpt lat="47.27951" lon="-1.5571">
    <ele>38.3</ele>
    <name><![CDATA[Départ]]></name>
    <desc><![CDATA[Départ/Arrivée parking salle Capellia]]></desc>
    <type><![CDATA[toilettes]]></type>
  </wpt>
  <wpt lat="47.26985" lon="-1.55315">
    <ele>27.3</ele>
    <name><![CDATA[WC + eau]]></name>
    <desc><![CDATA[Wc Maison de la Nature]]></desc>
    <type><![CDATA[toilettes]]></type>
  </wpt>
  <wpt lat="47.32221" lon="-1.56293">
    <ele>19.6</ele>
    <name><![CDATA[Pause technique possible]]></name>
    <desc><![CDATA[Possibilité de pause technique dans la nature

Type: Toilettes publiques
Latlon: 47.322210,-1.562930
UTM: 30T 608595 5241972
Alt: 19.6m]]></desc>
    <type><![CDATA[toilettes]]></type>
  </wpt>
  <wpt lat="47.30718" lon="-1.53467">
    <ele>7.1</ele>
    <name><![CDATA[Pique- nique]]></name>
    <desc><![CDATA[Pause pique-nique  avec toilettes et ravitaillement eau]]></desc>
    <type><![CDATA[picnic]]></type>
  </wpt>
  <wpt lat="47.29367" lon="-1.53811">
    <ele>5</ele>
    <name><![CDATA[Toilettes ANCRE]]></name>
    <desc><![CDATA[Toilettes de l'ANCRE (base nautique)]]></desc>
    <type><![CDATA[toilettes]]></type>
  </wpt>
  <wpt lat="47.32364" lon="-1.5616">
    <ele>15</ele>
    <name><![CDATA[Ravitaillemnt eau]]></name>
    <desc><![CDATA[Ravitaillement eau]]></desc>
    <type><![CDATA[drink]]></type>
  </wpt>
  <wpt lat="47.30659" lon="-1.53346">
    <ele>4</ele>
    <name><![CDATA[WC]]></name>
    <type><![CDATA[toilettes]]></type>
  </wpt>
  <trk>
    <name><![CDATA[7 juin 2024_ErdreGesvesV7_17km]]></name>
    <extensions>
      <line xmlns="http://www.topografix.com/GPX/gpx_style/0/2">
        <color>0000FF</color>
        <width>4</width>
          <extensions>
            <sens>1</sens>
          </extensions>
      </line>
    </extensions>
    <trkseg>
      <trkpt lat="47.27945" lon="-1.55712">
        <ele>38</ele>
        <time>2023-06-21T07:00:00.000Z</time>
      </trkpt>
      <trkpt lat="47.27968" lon="-1.55761">
        <ele>38</ele>
        <time>2023-06-21T07:00:31.838Z</time>
      </trkpt>
      <trkpt lat="47.27965" lon="-1.55817">
        <ele>38.4</ele>
        <time>2023-06-21T07:01:07.931Z</time>
      </trkpt>
      <trkpt lat="47.27964" lon="-1.55857">
        <ele>37.7</ele>
        <time>2023-06-21T07:01:22.545Z</time>
      </trkpt>
      <trkpt lat="47.2797" lon="-1.55905">
        <ele>38.5</ele>
        <time>2023-06-21T07:01:41.555Z</time>
      </trkpt>
      <trkpt lat="47.27963" lon="-1.55916">
        <ele>38.7</ele>
        <time>2023-06-21T07:01:59.546Z</time>
      </trkpt>
      <trkpt lat="47.27947" lon="-1.55909">
        <ele>37.8</ele>
        <time>2023-06-21T07:02:19.150Z</time>
      </trkpt>
      <trkpt lat="47.279" lon="-1.55975">
        <ele>36.4</ele>
        <time>2023-06-21T07:02:39.295Z</time>
      </trkpt>
      <trkpt lat="47.27864" lon="-1.56024">
        <ele>35.9</ele>
        <time>2023-06-21T07:03:14.209Z</time>
      </trkpt>
      <trkpt lat="47.27852" lon="-1.56049">
        <ele>35.7</ele>
        <time>2023-06-21T07:03:32.476Z</time>
      </trkpt>
      <trkpt lat="47.27852" lon="-1.56079">
        <ele>35.7</ele>
        <time>2023-06-21T07:03:51.140Z</time>
      </trkpt>
      <trkpt lat="47.27864" lon="-1.56187">
        <ele>35.4</ele>
        <time>2023-06-21T07:04:09.542Z</time>
      </trkpt>
      <trkpt lat="47.2783" lon="-1.56193">
        <ele>33.7</ele>
        <time>2023-06-21T07:04:30.846Z</time>
      </trkpt>
      <trkpt lat="47.27819" lon="-1.56238">
        <ele>32.2</ele>
        <time>2023-06-21T07:04:46.829Z</time>
      </trkpt>
      <trkpt lat="47.27812" lon="-1.56252">
        <ele>31.4</ele>
        <time>2023-06-21T07:05:06.549Z</time>
      </trkpt>
      <trkpt lat="47.27796" lon="-1.56271">
        <ele>27.8</ele>
        <time>2023-06-21T07:05:27.760Z</time>
      </trkpt>
      <trkpt lat="47.27819" lon="-1.5631">
        <ele>25.7</ele>
        <time>2023-06-21T07:05:41.982Z</time>
      </trkpt>
      <trkpt lat="47.27854" lon="-1.56362">
        <ele>20.1</ele>
        <time>2023-06-21T07:06:59.653Z</time>
      </trkpt>
      <trkpt lat="47.27857" lon="-1.5638">
        <ele>17.8</ele>
        <time>2023-06-21T07:07:19.516Z</time>
      </trkpt>
      <trkpt lat="47.27857" lon="-1.5642">
        <ele>14.4</ele>
        <time>2023-06-21T07:08:40.298Z</time>
      </trkpt>
      <trkpt lat="47.27858" lon="-1.56442">
        <ele>12.9</ele>
      </trkpt>
      <trkpt lat="47.27854" lon="-1.56473">
        <ele>11</ele>
        <time>2023-06-21T07:08:56.982Z</time>
      </trkpt>
      <trkpt lat="47.27856" lon="-1.56504">
        <ele>16</ele>
        <time>2023-06-21T07:09:11.747Z</time>
      </trkpt>
      <trkpt lat="47.27865" lon="-1.56527">
        <ele>16</ele>
        <time>2023-06-21T07:09:27.956Z</time>
      </trkpt>
      <trkpt lat="47.27878" lon="-1.56546">
        <ele>16</ele>
        <time>2023-06-21T07:09:44.429Z</time>
      </trkpt>
      <trkpt lat="47.27894" lon="-1.56565">
        <ele>16</ele>
        <time>2023-06-21T07:10:02.918Z</time>
      </trkpt>
      <trkpt lat="47.27908" lon="-1.56585">
        <ele>16</ele>
        <time>2023-06-21T07:10:20.461Z</time>
      </trkpt>
      <trkpt lat="47.27924" lon="-1.56602">
        <ele>16</ele>
        <time>2023-06-21T07:10:38.209Z</time>
      </trkpt>
      <trkpt lat="47.27944" lon="-1.56603">
        <ele>16</ele>
        <time>2023-06-21T07:10:56.216Z</time>
      </trkpt>
      <trkpt lat="47.27964" lon="-1.56602">
        <ele>16</ele>
        <time>2023-06-21T07:11:14.222Z</time>
      </trkpt>
      <trkpt lat="47.27982" lon="-1.56608">
        <ele>16</ele>
        <time>2023-06-21T07:11:30.828Z</time>
      </trkpt>
      <trkpt lat="47.27999" lon="-1.56625">
        <ele>15.7</ele>
        <time>2023-06-21T07:11:48.508Z</time>
      </trkpt>
      <trkpt lat="47.28019" lon="-1.56632">
        <ele>15</ele>
        <time>2023-06-21T07:12:05.200Z</time>
      </trkpt>
      <trkpt lat="47.28039" lon="-1.56633">
        <ele>15</ele>
        <time>2023-06-21T07:12:23.207Z</time>
      </trkpt>
      <trkpt lat="47.28058" lon="-1.56629">
        <ele>15</ele>
        <time>2023-06-21T07:12:40.478Z</time>
      </trkpt>
      <trkpt lat="47.28079" lon="-1.56623">
        <ele>15.3</ele>
        <time>2023-06-21T07:13:00.582Z</time>
      </trkpt>
      <trkpt lat="47.28098" lon="-1.56619">
        <ele>16</ele>
        <time>2023-06-21T07:13:19.955Z</time>
      </trkpt>
      <trkpt lat="47.28115" lon="-1.56608">
        <ele>16</ele>
        <time>2023-06-21T07:13:36.661Z</time>
      </trkpt>
      <trkpt lat="47.28133" lon="-1.56602">
        <ele>16</ele>
        <time>2023-06-21T07:13:53.267Z</time>
      </trkpt>
      <trkpt lat="47.28152" lon="-1.56591">
        <ele>15.95</ele>
        <time>2023-06-21T07:14:11.497Z</time>
      </trkpt>
      <trkpt lat="47.28169" lon="-1.56582">
        <ele>10</ele>
        <time>2023-06-21T07:14:25.719Z</time>
      </trkpt>
      <trkpt lat="47.28189" lon="-1.56567">
        <ele>10</ele>
        <time>2023-06-21T07:14:45.911Z</time>
      </trkpt>
      <trkpt lat="47.282" lon="-1.56544">
        <ele>10</ele>
        <time>2023-06-21T07:15:03.089Z</time>
      </trkpt>
      <trkpt lat="47.28213" lon="-1.56519">
        <ele>10</ele>
        <time>2023-06-21T07:15:22.318Z</time>
      </trkpt>
      <trkpt lat="47.28231" lon="-1.56506">
        <ele>10.71</ele>
        <time>2023-06-21T07:15:42.481Z</time>
      </trkpt>
      <trkpt lat="47.28251" lon="-1.56496">
        <ele>15</ele>
        <time>2023-06-21T07:16:21.157Z</time>
      </trkpt>
      <trkpt lat="47.28268" lon="-1.56481">
        <ele>15</ele>
        <time>2023-06-21T07:16:38.986Z</time>
      </trkpt>
      <trkpt lat="47.28287" lon="-1.5649">
        <ele>15</ele>
        <time>2023-06-21T07:16:56.943Z</time>
      </trkpt>
      <trkpt lat="47.28307" lon="-1.5649">
        <ele>15</ele>
        <time>2023-06-21T07:17:14.940Z</time>
      </trkpt>
      <trkpt lat="47.28325" lon="-1.56486">
        <ele>15.09</ele>
        <time>2023-06-21T07:17:31.572Z</time>
      </trkpt>
      <trkpt lat="47.28343" lon="-1.5648">
        <ele>16</ele>
        <time>2023-06-21T07:17:50.992Z</time>
      </trkpt>
      <trkpt lat="47.28362" lon="-1.56489">
        <ele>16</ele>
        <time>2023-06-21T07:18:08.950Z</time>
      </trkpt>
      <trkpt lat="47.28385" lon="-1.56496">
        <ele>16</ele>
        <time>2023-06-21T07:18:30.082Z</time>
      </trkpt>
      <trkpt lat="47.28404" lon="-1.56494">
        <ele>14.22</ele>
        <time>2023-06-21T07:18:45.080Z</time>
      </trkpt>
      <trkpt lat="47.28422" lon="-1.56507">
        <ele>12.01</ele>
        <time>2023-06-21T07:19:00.862Z</time>
      </trkpt>
      <trkpt lat="47.2844" lon="-1.56501">
        <ele>14.4</ele>
        <time>2023-06-21T07:19:26.458Z</time>
      </trkpt>
      <trkpt lat="47.28461" lon="-1.56492">
        <ele>20</ele>
        <time>2023-06-21T07:20:16.011Z</time>
      </trkpt>
      <trkpt lat="47.28483" lon="-1.56482">
        <ele>20</ele>
        <time>2023-06-21T07:20:36.727Z</time>
      </trkpt>
      <trkpt lat="47.28502" lon="-1.56472">
        <ele>24</ele>
        <time>2023-06-21T07:21:12.976Z</time>
      </trkpt>
      <trkpt lat="47.28524" lon="-1.56471">
        <ele>24</ele>
        <time>2023-06-21T07:21:32.782Z</time>
      </trkpt>
      <trkpt lat="47.2854" lon="-1.56486">
        <ele>23.99</ele>
        <time>2023-06-21T07:21:49.816Z</time>
      </trkpt>
      <trkpt lat="47.28548" lon="-1.5651">
        <ele>16</ele>
        <time>2023-06-21T07:22:04.098Z</time>
      </trkpt>
      <trkpt lat="47.28548" lon="-1.5654">
        <ele>16</ele>
        <time>2023-06-21T07:22:22.410Z</time>
      </trkpt>
      <trkpt lat="47.28558" lon="-1.56563">
        <ele>15.96</ele>
        <time>2023-06-21T07:22:38.975Z</time>
      </trkpt>
      <trkpt lat="47.28554" lon="-1.56592">
        <ele>11</ele>
        <time>2023-06-21T07:22:54.781Z</time>
      </trkpt>
      <trkpt lat="47.2856" lon="-1.56618">
        <ele>11</ele>
        <time>2023-06-21T07:23:11.544Z</time>
      </trkpt>
      <trkpt lat="47.28575" lon="-1.56636">
        <ele>11</ele>
        <time>2023-06-21T07:23:28.948Z</time>
      </trkpt>
      <trkpt lat="47.28586" lon="-1.56658">
        <ele>14</ele>
        <time>2023-06-21T07:23:57.915Z</time>
      </trkpt>
      <trkpt lat="47.28607" lon="-1.56668">
        <ele>10</ele>
        <time>2023-06-21T07:24:15.291Z</time>
      </trkpt>
      <trkpt lat="47.28629" lon="-1.56675">
        <ele>10</ele>
        <time>2023-06-21T07:24:35.543Z</time>
      </trkpt>
      <trkpt lat="47.28649" lon="-1.56683">
        <ele>10.02</ele>
        <time>2023-06-21T07:24:54.245Z</time>
      </trkpt>
      <trkpt lat="47.28667" lon="-1.56686">
        <ele>12</ele>
        <time>2023-06-21T07:25:17.621Z</time>
      </trkpt>
      <trkpt lat="47.28688" lon="-1.56691">
        <ele>12</ele>
        <time>2023-06-21T07:25:36.762Z</time>
      </trkpt>
      <trkpt lat="47.28704" lon="-1.56706">
        <ele>12</ele>
        <time>2023-06-21T07:25:53.824Z</time>
      </trkpt>
      <trkpt lat="47.28718" lon="-1.56725">
        <ele>12</ele>
        <time>2023-06-21T07:26:10.947Z</time>
      </trkpt>
      <trkpt lat="47.2874" lon="-1.56738">
        <ele>12.09</ele>
        <time>2023-06-21T07:26:32.526Z</time>
      </trkpt>
      <trkpt lat="47.28756" lon="-1.56751">
        <ele>16</ele>
        <time>2023-06-21T07:27:07.452Z</time>
      </trkpt>
      <trkpt lat="47.28777" lon="-1.56756">
        <ele>16</ele>
        <time>2023-06-21T07:27:26.594Z</time>
      </trkpt>
      <trkpt lat="47.28796" lon="-1.56761">
        <ele>16</ele>
        <time>2023-06-21T07:27:43.961Z</time>
      </trkpt>
      <trkpt lat="47.28817" lon="-1.5676">
        <ele>16.04</ele>
        <time>2023-06-21T07:28:02.978Z</time>
      </trkpt>
      <trkpt lat="47.28838" lon="-1.56757">
        <ele>21.37</ele>
        <time>2023-06-21T07:28:50.115Z</time>
      </trkpt>
      <trkpt lat="47.28854" lon="-1.56739">
        <ele>15</ele>
        <time>2023-06-21T07:29:05.961Z</time>
      </trkpt>
      <trkpt lat="47.28856" lon="-1.56711">
        <ele>15</ele>
        <time>2023-06-21T07:29:23.146Z</time>
      </trkpt>
      <trkpt lat="47.28858" lon="-1.56677">
        <ele>14.73</ele>
        <time>2023-06-21T07:29:43.246Z</time>
      </trkpt>
      <trkpt lat="47.2886" lon="-1.56649">
        <ele>12</ele>
        <time>2023-06-21T07:29:58.283Z</time>
      </trkpt>
      <trkpt lat="47.28863" lon="-1.56622">
        <ele>12</ele>
        <time>2023-06-21T07:30:14.982Z</time>
      </trkpt>
      <trkpt lat="47.28872" lon="-1.56597">
        <ele>12.19</ele>
        <time>2023-06-21T07:30:32.795Z</time>
      </trkpt>
      <trkpt lat="47.2888" lon="-1.56571">
        <ele>19</ele>
        <time>2023-06-21T07:31:38.037Z</time>
      </trkpt>
      <trkpt lat="47.28887" lon="-1.56545">
        <ele>19</ele>
        <time>2023-06-21T07:31:55.110Z</time>
      </trkpt>
      <trkpt lat="47.28899" lon="-1.56523">
        <ele>18.97</ele>
        <time>2023-06-21T07:32:12.258Z</time>
      </trkpt>
      <trkpt lat="47.28917" lon="-1.56507">
        <ele>15.08</ele>
        <time>2023-06-21T07:32:28.807Z</time>
      </trkpt>
      <trkpt lat="47.28934" lon="-1.56487">
        <ele>26</ele>
        <time>2023-06-21T07:34:11.553Z</time>
      </trkpt>
      <trkpt lat="47.28954" lon="-1.56473">
        <ele>26</ele>
        <time>2023-06-21T07:34:31.476Z</time>
      </trkpt>
      <trkpt lat="47.28974" lon="-1.5646">
        <ele>26</ele>
        <time>2023-06-21T07:34:51.144Z</time>
      </trkpt>
      <trkpt lat="47.28993" lon="-1.56459">
        <ele>26.18</ele>
        <time>2023-06-21T07:35:08.760Z</time>
      </trkpt>
      <trkpt lat="47.29012" lon="-1.56459">
        <ele>28</ele>
        <time>2023-06-21T07:35:32.146Z</time>
      </trkpt>
      <trkpt lat="47.29033" lon="-1.56464">
        <ele>28</ele>
        <time>2023-06-21T07:35:51.287Z</time>
      </trkpt>
      <trkpt lat="47.29052" lon="-1.56469">
        <ele>28</ele>
        <time>2023-06-21T07:36:08.654Z</time>
      </trkpt>
      <trkpt lat="47.29069" lon="-1.5649">
        <ele>27.79</ele>
        <time>2023-06-21T07:36:28.041Z</time>
      </trkpt>
      <trkpt lat="47.29083" lon="-1.5651">
        <ele>21.2</ele>
        <time>2023-06-21T07:36:43.390Z</time>
      </trkpt>
      <trkpt lat="47.29091" lon="-1.56536">
        <ele>24</ele>
        <time>2023-06-21T07:37:11.769Z</time>
      </trkpt>
      <trkpt lat="47.29097" lon="-1.56567">
        <ele>23.76</ele>
        <time>2023-06-21T07:37:30.795Z</time>
      </trkpt>
      <trkpt lat="47.29106" lon="-1.56593">
        <ele>15</ele>
        <time>2023-06-21T07:37:46.384Z</time>
      </trkpt>
      <trkpt lat="47.29124" lon="-1.56614">
        <ele>15</ele>
        <time>2023-06-21T07:38:07.038Z</time>
      </trkpt>
      <trkpt lat="47.29137" lon="-1.56635">
        <ele>15</ele>
        <time>2023-06-21T07:38:24.391Z</time>
      </trkpt>
      <trkpt lat="47.29157" lon="-1.5664">
        <ele>15.03</ele>
        <time>2023-06-21T07:38:42.728Z</time>
      </trkpt>
      <trkpt lat="47.29175" lon="-1.56639">
        <ele>16</ele>
        <time>2023-06-21T07:39:01.968Z</time>
      </trkpt>
      <trkpt lat="47.29195" lon="-1.5664">
        <ele>16</ele>
        <time>2023-06-21T07:39:19.975Z</time>
      </trkpt>
      <trkpt lat="47.29214" lon="-1.56638">
        <ele>16</ele>
        <time>2023-06-21T07:39:37.115Z</time>
      </trkpt>
      <trkpt lat="47.29235" lon="-1.56647">
        <ele>16.01</ele>
        <time>2023-06-21T07:39:56.821Z</time>
      </trkpt>
      <trkpt lat="47.29243" lon="-1.5664">
        <ele>14.2</ele>
      </trkpt>
      <trkpt lat="47.29251" lon="-1.56634">
        <ele>21</ele>
        <time>2023-06-21T07:40:41.238Z</time>
      </trkpt>
      <trkpt lat="47.29267" lon="-1.56618">
        <ele>21</ele>
        <time>2023-06-21T07:40:58.634Z</time>
      </trkpt>
      <trkpt lat="47.29279" lon="-1.5664">
        <ele>21</ele>
        <time>2023-06-21T07:41:15.864Z</time>
      </trkpt>
      <trkpt lat="47.29266" lon="-1.56621">
        <ele>21</ele>
        <time>2023-06-21T07:41:32.336Z</time>
      </trkpt>
      <trkpt lat="47.29285" lon="-1.5664">
        <ele>20.99</ele>
        <time>2023-06-21T07:41:52.966Z</time>
      </trkpt>
      <trkpt lat="47.29302" lon="-1.56661">
        <ele>20.56</ele>
        <time>2023-06-21T07:42:11.780Z</time>
      </trkpt>
      <trkpt lat="47.29325" lon="-1.56675">
        <ele>16.81</ele>
        <time>2023-06-21T07:42:31.372Z</time>
      </trkpt>
      <trkpt lat="47.29344" lon="-1.56682">
        <ele>25</ele>
        <time>2023-06-21T07:43:56.473Z</time>
      </trkpt>
      <trkpt lat="47.29363" lon="-1.56702">
        <ele>25</ele>
        <time>2023-06-21T07:44:17.479Z</time>
      </trkpt>
      <trkpt lat="47.29382" lon="-1.56722">
        <ele>25</ele>
        <time>2023-06-21T07:44:38.486Z</time>
      </trkpt>
      <trkpt lat="47.29402" lon="-1.56737">
        <ele>25.1</ele>
        <time>2023-06-21T07:44:58.957Z</time>
      </trkpt>
      <trkpt lat="47.29421" lon="-1.56748">
        <ele>28.4</ele>
        <time>2023-06-21T07:45:30.832Z</time>
      </trkpt>
      <trkpt lat="47.29439" lon="-1.56759">
        <ele>27</ele>
        <time>2023-06-21T07:45:46.174Z</time>
      </trkpt>
      <trkpt lat="47.2946" lon="-1.56765">
        <ele>27</ele>
        <time>2023-06-21T07:46:05.422Z</time>
      </trkpt>
      <trkpt lat="47.29484" lon="-1.5677">
        <ele>27</ele>
        <time>2023-06-21T07:46:27.232Z</time>
      </trkpt>
      <trkpt lat="47.29504" lon="-1.56774">
        <ele>27</ele>
        <time>2023-06-21T07:46:45.393Z</time>
      </trkpt>
      <trkpt lat="47.29526" lon="-1.56771">
        <ele>27</ele>
        <time>2023-06-21T07:47:05.274Z</time>
      </trkpt>
      <trkpt lat="47.29545" lon="-1.56762">
        <ele>27.02</ele>
        <time>2023-06-21T07:47:23.287Z</time>
      </trkpt>
      <trkpt lat="47.29566" lon="-1.56747">
        <ele>33.99</ele>
        <time>2023-06-21T07:48:26.389Z</time>
      </trkpt>
      <trkpt lat="47.29583" lon="-1.56739">
        <ele>30</ele>
        <time>2023-06-21T07:48:40.439Z</time>
      </trkpt>
      <trkpt lat="47.29603" lon="-1.56727">
        <ele>30</ele>
        <time>2023-06-21T07:48:59.869Z</time>
      </trkpt>
      <trkpt lat="47.2962" lon="-1.56715">
        <ele>30</ele>
        <time>2023-06-21T07:49:16.828Z</time>
      </trkpt>
      <trkpt lat="47.29639" lon="-1.56705">
        <ele>30</ele>
        <time>2023-06-21T07:49:34.982Z</time>
      </trkpt>
      <trkpt lat="47.29656" lon="-1.56691">
        <ele>29.89</ele>
        <time>2023-06-21T07:49:52.202Z</time>
      </trkpt>
      <trkpt lat="47.29674" lon="-1.56683">
        <ele>26</ele>
        <time>2023-06-21T07:50:07.004Z</time>
      </trkpt>
      <trkpt lat="47.29694" lon="-1.56671">
        <ele>26.27</ele>
        <time>2023-06-21T07:50:27.202Z</time>
      </trkpt>
      <trkpt lat="47.29713" lon="-1.56661">
        <ele>29</ele>
        <time>2023-06-21T07:50:55.780Z</time>
      </trkpt>
      <trkpt lat="47.29733" lon="-1.56657">
        <ele>28.98</ele>
        <time>2023-06-21T07:51:13.886Z</time>
      </trkpt>
      <trkpt lat="47.29751" lon="-1.56654">
        <ele>27</ele>
        <time>2023-06-21T07:51:28.149Z</time>
      </trkpt>
      <trkpt lat="47.29772" lon="-1.56656">
        <ele>27</ele>
        <time>2023-06-21T07:51:47.085Z</time>
      </trkpt>
      <trkpt lat="47.29791" lon="-1.56651">
        <ele>27</ele>
        <time>2023-06-21T07:52:04.452Z</time>
      </trkpt>
      <trkpt lat="47.29812" lon="-1.56646">
        <ele>27</ele>
        <time>2023-06-21T07:52:23.593Z</time>
      </trkpt>
      <trkpt lat="47.29832" lon="-1.56639">
        <ele>25.8</ele>
        <time>2023-06-21T07:52:39.777Z</time>
      </trkpt>
      <trkpt lat="47.29851" lon="-1.5663">
        <ele>23</ele>
        <time>2023-06-21T07:52:55.490Z</time>
      </trkpt>
      <trkpt lat="47.29871" lon="-1.5662">
        <ele>23</ele>
        <time>2023-06-21T07:53:14.493Z</time>
      </trkpt>
      <trkpt lat="47.29891" lon="-1.56616">
        <ele>23</ele>
        <time>2023-06-21T07:53:32.654Z</time>
      </trkpt>
      <trkpt lat="47.2991" lon="-1.56617">
        <ele>22.28</ele>
        <time>2023-06-21T07:53:47.920Z</time>
      </trkpt>
      <trkpt lat="47.29929" lon="-1.56614">
        <ele>15</ele>
        <time>2023-06-21T07:54:02.965Z</time>
      </trkpt>
      <trkpt lat="47.29951" lon="-1.56615">
        <ele>15</ele>
        <time>2023-06-21T07:54:22.771Z</time>
      </trkpt>
      <trkpt lat="47.2997" lon="-1.56617">
        <ele>15</ele>
        <time>2023-06-21T07:54:39.911Z</time>
      </trkpt>
      <trkpt lat="47.29993" lon="-1.56613">
        <ele>14.82</ele>
        <time>2023-06-21T07:55:00.260Z</time>
      </trkpt>
      <trkpt lat="47.30012" lon="-1.56609">
        <ele>13</ele>
        <time>2023-06-21T07:55:15.372Z</time>
      </trkpt>
      <trkpt lat="47.30029" lon="-1.56603">
        <ele>13</ele>
        <time>2023-06-21T07:55:31.101Z</time>
      </trkpt>
      <trkpt lat="47.30052" lon="-1.56605">
        <ele>13</ele>
        <time>2023-06-21T07:55:51.833Z</time>
      </trkpt>
      <trkpt lat="47.30072" lon="-1.56611">
        <ele>13.14</ele>
        <time>2023-06-21T07:56:10.592Z</time>
      </trkpt>
      <trkpt lat="47.3009" lon="-1.56618">
        <ele>18</ele>
        <time>2023-06-21T07:56:53.649Z</time>
      </trkpt>
      <trkpt lat="47.30112" lon="-1.56618">
        <ele>18</ele>
        <time>2023-06-21T07:57:13.446Z</time>
      </trkpt>
      <trkpt lat="47.30131" lon="-1.56616">
        <ele>18</ele>
        <time>2023-06-21T07:57:30.586Z</time>
      </trkpt>
      <trkpt lat="47.30153" lon="-1.56616">
        <ele>18.11</ele>
        <time>2023-06-21T07:57:50.690Z</time>
      </trkpt>
      <trkpt lat="47.30174" lon="-1.5661">
        <ele>22</ele>
        <time>2023-06-21T07:58:26.756Z</time>
      </trkpt>
      <trkpt lat="47.30196" lon="-1.56602">
        <ele>22</ele>
        <time>2023-06-21T07:58:47.145Z</time>
      </trkpt>
      <trkpt lat="47.30214" lon="-1.56594">
        <ele>22.02</ele>
        <time>2023-06-21T07:59:04.117Z</time>
      </trkpt>
      <trkpt lat="47.30233" lon="-1.5658">
        <ele>25.01</ele>
        <time>2023-06-21T07:59:34.810Z</time>
      </trkpt>
      <trkpt lat="47.30253" lon="-1.56572">
        <ele>29</ele>
        <time>2023-06-21T08:00:11.222Z</time>
      </trkpt>
      <trkpt lat="47.30269" lon="-1.56558">
        <ele>29</ele>
        <time>2023-06-21T08:00:27.963Z</time>
      </trkpt>
      <trkpt lat="47.30287" lon="-1.56544">
        <ele>29</ele>
        <time>2023-06-21T08:00:46.275Z</time>
      </trkpt>
      <trkpt lat="47.30307" lon="-1.56532">
        <ele>29</ele>
        <time>2023-06-21T08:01:05.704Z</time>
      </trkpt>
      <trkpt lat="47.30329" lon="-1.56527">
        <ele>29.6</ele>
        <time>2023-06-21T08:01:27.497Z</time>
      </trkpt>
      <trkpt lat="47.30354" lon="-1.56526">
        <ele>31</ele>
        <time>2023-06-21T08:01:54.399Z</time>
      </trkpt>
      <trkpt lat="47.30371" lon="-1.56512">
        <ele>31</ele>
        <time>2023-06-21T08:02:11.919Z</time>
      </trkpt>
      <trkpt lat="47.30388" lon="-1.56499">
        <ele>31</ele>
        <time>2023-06-21T08:02:29.151Z</time>
      </trkpt>
      <trkpt lat="47.30407" lon="-1.56489">
        <ele>31.14</ele>
        <time>2023-06-21T08:02:47.698Z</time>
      </trkpt>
      <trkpt lat="47.30422" lon="-1.56474">
        <ele>36</ele>
        <time>2023-06-21T08:03:30.861Z</time>
      </trkpt>
      <trkpt lat="47.30429" lon="-1.56443">
        <ele>35.99</ele>
        <time>2023-06-21T08:03:50.770Z</time>
      </trkpt>
      <trkpt lat="47.30436" lon="-1.56416">
        <ele>35</ele>
        <time>2023-06-21T08:04:06.204Z</time>
      </trkpt>
      <trkpt lat="47.3044" lon="-1.56387">
        <ele>35</ele>
        <time>2023-06-21T08:04:24.261Z</time>
      </trkpt>
      <trkpt lat="47.30449" lon="-1.56356">
        <ele>35</ele>
        <time>2023-06-21T08:04:44.837Z</time>
      </trkpt>
      <trkpt lat="47.30457" lon="-1.5633">
        <ele>34</ele>
        <time>2023-06-21T08:05:00.081Z</time>
      </trkpt>
      <trkpt lat="47.30463" lon="-1.56302">
        <ele>34</ele>
        <time>2023-06-21T08:05:17.998Z</time>
      </trkpt>
      <trkpt lat="47.30473" lon="-1.56278">
        <ele>34</ele>
        <time>2023-06-21T08:05:35.186Z</time>
      </trkpt>
      <trkpt lat="47.30482" lon="-1.56252">
        <ele>34</ele>
        <time>2023-06-21T08:05:52.998Z</time>
      </trkpt>
      <trkpt lat="47.30492" lon="-1.56225">
        <ele>34</ele>
        <time>2023-06-21T08:06:11.770Z</time>
      </trkpt>
      <trkpt lat="47.30504" lon="-1.56201">
        <ele>34</ele>
        <time>2023-06-21T08:06:29.965Z</time>
      </trkpt>
      <trkpt lat="47.30513" lon="-1.56175">
        <ele>33.91</ele>
        <time>2023-06-21T08:06:47.530Z</time>
      </trkpt>
      <trkpt lat="47.30524" lon="-1.56153">
        <ele>33</ele>
        <time>2023-06-21T08:07:02.123Z</time>
      </trkpt>
      <trkpt lat="47.30539" lon="-1.56132">
        <ele>33</ele>
        <time>2023-06-21T08:07:20.734Z</time>
      </trkpt>
      <trkpt lat="47.30548" lon="-1.56105">
        <ele>32.99</ele>
        <time>2023-06-21T08:07:39.064Z</time>
      </trkpt>
      <trkpt lat="47.30557" lon="-1.5608">
        <ele>32</ele>
        <time>2023-06-21T08:07:54.176Z</time>
      </trkpt>
      <trkpt lat="47.30567" lon="-1.56057">
        <ele>32</ele>
        <time>2023-06-21T08:08:10.846Z</time>
      </trkpt>
      <trkpt lat="47.30575" lon="-1.56033">
        <ele>32.02</ele>
        <time>2023-06-21T08:08:27.219Z</time>
      </trkpt>
      <trkpt lat="47.30589" lon="-1.5605">
        <ele>34</ele>
        <time>2023-06-21T08:08:50.611Z</time>
      </trkpt>
      <trkpt lat="47.30608" lon="-1.56063">
        <ele>34</ele>
        <time>2023-06-21T08:09:09.458Z</time>
      </trkpt>
      <trkpt lat="47.30596" lon="-1.55989">
        <ele>31.3</ele>
      </trkpt>
      <trkpt lat="47.30612" lon="-1.55972">
        <ele>31</ele>
      </trkpt>
      <trkpt lat="47.30585" lon="-1.55886">
        <ele>31</ele>
      </trkpt>
      <trkpt lat="47.30626" lon="-1.55854">
        <ele>30.5</ele>
      </trkpt>
      <trkpt lat="47.30624" lon="-1.55768">
        <ele>31.2</ele>
      </trkpt>
      <trkpt lat="47.30751" lon="-1.55824">
        <ele>31.7</ele>
      </trkpt>
      <trkpt lat="47.30944" lon="-1.55622">
        <ele>28.4</ele>
      </trkpt>
      <trkpt lat="47.3124" lon="-1.55421">
        <ele>20.11</ele>
        <time>2023-06-21T09:04:55.135Z</time>
      </trkpt>
      <trkpt lat="47.31224" lon="-1.55406">
        <ele>24</ele>
        <time>2023-06-21T09:05:30.136Z</time>
      </trkpt>
      <trkpt lat="47.31227" lon="-1.5538">
        <ele>24</ele>
        <time>2023-06-21T09:05:46.226Z</time>
      </trkpt>
      <trkpt lat="47.31231" lon="-1.55352">
        <ele>24</ele>
        <time>2023-06-21T09:06:03.683Z</time>
      </trkpt>
      <trkpt lat="47.3123" lon="-1.55324">
        <ele>24</ele>
        <time>2023-06-21T09:06:20.789Z</time>
      </trkpt>
      <trkpt lat="47.31228" lon="-1.55296">
        <ele>24</ele>
        <time>2023-06-21T09:06:37.966Z</time>
      </trkpt>
      <trkpt lat="47.31224" lon="-1.55269">
        <ele>23.98</ele>
        <time>2023-06-21T09:06:54.772Z</time>
      </trkpt>
      <trkpt lat="47.31219" lon="-1.55238">
        <ele>21</ele>
        <time>2023-06-21T09:07:11.782Z</time>
      </trkpt>
      <trkpt lat="47.31215" lon="-1.55206">
        <ele>21</ele>
        <time>2023-06-21T09:07:31.634Z</time>
      </trkpt>
      <trkpt lat="47.3121" lon="-1.55178">
        <ele>20.55</ele>
        <time>2023-06-21T09:07:48.112Z</time>
      </trkpt>
      <trkpt lat="47.31207" lon="-1.5515">
        <ele>16</ele>
        <time>2023-06-21T09:08:03.245Z</time>
      </trkpt>
      <trkpt lat="47.31205" lon="-1.55122">
        <ele>16</ele>
        <time>2023-06-21T09:08:20.422Z</time>
      </trkpt>
      <trkpt lat="47.31204" lon="-1.55091">
        <ele>15.91</ele>
        <time>2023-06-21T09:08:39.109Z</time>
      </trkpt>
      <trkpt lat="47.31199" lon="-1.55062">
        <ele>15</ele>
        <time>2023-06-21T09:08:55.082Z</time>
      </trkpt>
      <trkpt lat="47.31196" lon="-1.5503">
        <ele>15</ele>
        <time>2023-06-21T09:09:14.791Z</time>
      </trkpt>
      <trkpt lat="47.31196" lon="-1.55001">
        <ele>14.7</ele>
        <time>2023-06-21T09:09:31.679Z</time>
      </trkpt>
      <trkpt lat="47.31193" lon="-1.54973">
        <ele>14</ele>
        <time>2023-06-21T09:09:47.178Z</time>
      </trkpt>
      <trkpt lat="47.31188" lon="-1.54943">
        <ele>14</ele>
        <time>2023-06-21T09:10:06.026Z</time>
      </trkpt>
      <trkpt lat="47.31189" lon="-1.5491">
        <ele>14</ele>
        <time>2023-06-21T09:10:26.179Z</time>
      </trkpt>
      <trkpt lat="47.31187" lon="-1.54883">
        <ele>14</ele>
        <time>2023-06-21T09:10:42.749Z</time>
      </trkpt>
      <trkpt lat="47.3118" lon="-1.54855">
        <ele>14</ele>
        <time>2023-06-21T09:11:00.956Z</time>
      </trkpt>
      <trkpt lat="47.31175" lon="-1.54828">
        <ele>14</ele>
        <time>2023-06-21T09:11:18.032Z</time>
      </trkpt>
      <trkpt lat="47.31168" lon="-1.54801">
        <ele>14.72</ele>
        <time>2023-06-21T09:11:37.831Z</time>
      </trkpt>
      <trkpt lat="47.31164" lon="-1.54769">
        <ele>21.98</ele>
        <time>2023-06-21T09:12:45.550Z</time>
      </trkpt>
      <trkpt lat="47.3116" lon="-1.54739">
        <ele>20</ele>
        <time>2023-06-21T09:13:01.872Z</time>
      </trkpt>
      <trkpt lat="47.31142" lon="-1.54731">
        <ele>20</ele>
        <time>2023-06-21T09:13:18.788Z</time>
      </trkpt>
      <trkpt lat="47.31119" lon="-1.54733">
        <ele>20</ele>
        <time>2023-06-21T09:13:39.520Z</time>
      </trkpt>
      <trkpt lat="47.31107" lon="-1.5471">
        <ele>20</ele>
        <time>2023-06-21T09:13:57.226Z</time>
      </trkpt>
      <trkpt lat="47.31099" lon="-1.54683">
        <ele>19.99</ele>
        <time>2023-06-21T09:14:15.175Z</time>
      </trkpt>
      <trkpt lat="47.3111" lon="-1.54659">
        <ele>19</ele>
        <time>2023-06-21T09:14:30.640Z</time>
      </trkpt>
      <trkpt lat="47.31118" lon="-1.54635">
        <ele>19</ele>
        <time>2023-06-21T09:14:46.956Z</time>
      </trkpt>
      <trkpt lat="47.31116" lon="-1.54604">
        <ele>18.99</ele>
        <time>2023-06-21T09:15:05.927Z</time>
      </trkpt>
      <trkpt lat="47.31136" lon="-1.54618">
        <ele>18.97</ele>
        <time>2023-06-21T09:15:25.792Z</time>
      </trkpt>
      <trkpt lat="47.31162" lon="-1.54638">
        <ele>18.91</ele>
        <time>2023-06-21T09:15:52.013Z</time>
      </trkpt>
      <trkpt lat="47.31152" lon="-1.5461">
        <ele>18.7</ele>
        <time>2023-06-21T09:16:10.751Z</time>
      </trkpt>
      <trkpt lat="47.31144" lon="-1.54576">
        <ele>18</ele>
        <time>2023-06-21T09:16:30.883Z</time>
      </trkpt>
      <trkpt lat="47.31144" lon="-1.54547">
        <ele>18</ele>
        <time>2023-06-21T09:16:48.576Z</time>
      </trkpt>
      <trkpt lat="47.31153" lon="-1.54518">
        <ele>17.95</ele>
        <time>2023-06-21T09:17:07.896Z</time>
      </trkpt>
      <trkpt lat="47.31161" lon="-1.54486">
        <ele>15.56</ele>
        <time>2023-06-21T09:17:26.103Z</time>
      </trkpt>
      <trkpt lat="47.31169" lon="-1.54456">
        <ele>12.5</ele>
        <time>2023-06-21T09:17:43.312Z</time>
      </trkpt>
      <trkpt lat="47.31158" lon="-1.54433">
        <ele>15.95</ele>
        <time>2023-06-21T09:18:15.356Z</time>
      </trkpt>
      <trkpt lat="47.31146" lon="-1.5441">
        <ele>14</ele>
        <time>2023-06-21T09:18:30.849Z</time>
      </trkpt>
      <trkpt lat="47.31132" lon="-1.54388">
        <ele>14</ele>
        <time>2023-06-21T09:18:49.257Z</time>
      </trkpt>
      <trkpt lat="47.31117" lon="-1.5437">
        <ele>14</ele>
        <time>2023-06-21T09:19:06.657Z</time>
      </trkpt>
      <trkpt lat="47.31097" lon="-1.54367">
        <ele>14.08</ele>
        <time>2023-06-21T09:19:24.970Z</time>
      </trkpt>
      <trkpt lat="47.31078" lon="-1.54369">
        <ele>17</ele>
        <time>2023-06-21T09:19:53.799Z</time>
      </trkpt>
      <trkpt lat="47.3106" lon="-1.54373">
        <ele>17</ele>
        <time>2023-06-21T09:20:10.179Z</time>
      </trkpt>
      <trkpt lat="47.31042" lon="-1.54366">
        <ele>17</ele>
        <time>2023-06-21T09:20:26.929Z</time>
      </trkpt>
      <trkpt lat="47.31036" lon="-1.54336">
        <ele>15.8</ele>
        <time>2023-06-21T09:20:43.627Z</time>
      </trkpt>
      <trkpt lat="47.31037" lon="-1.54309">
        <ele>13</ele>
        <time>2023-06-21T09:20:58.062Z</time>
      </trkpt>
      <trkpt lat="47.31051" lon="-1.5429">
        <ele>13</ele>
        <time>2023-06-21T09:21:15.181Z</time>
      </trkpt>
      <trkpt lat="47.31071" lon="-1.5429">
        <ele>12.95</ele>
        <time>2023-06-21T09:21:33.040Z</time>
      </trkpt>
      <trkpt lat="47.31089" lon="-1.54292">
        <ele>11</ele>
        <time>2023-06-21T09:21:47.253Z</time>
      </trkpt>
      <trkpt lat="47.31108" lon="-1.54294">
        <ele>11</ele>
        <time>2023-06-21T09:22:04.393Z</time>
      </trkpt>
      <trkpt lat="47.31129" lon="-1.54293">
        <ele>11</ele>
        <time>2023-06-21T09:22:23.299Z</time>
      </trkpt>
      <trkpt lat="47.31149" lon="-1.54293">
        <ele>10.99</ele>
        <time>2023-06-21T09:22:41.268Z</time>
      </trkpt>
      <trkpt lat="47.31169" lon="-1.54294">
        <ele>7</ele>
        <time>2023-06-21T09:22:57.024Z</time>
      </trkpt>
      <trkpt lat="47.3119" lon="-1.54301">
        <ele>7</ele>
        <time>2023-06-21T09:23:16.397Z</time>
      </trkpt>
      <trkpt lat="47.31211" lon="-1.54314">
        <ele>7</ele>
        <time>2023-06-21T09:23:36.890Z</time>
      </trkpt>
      <trkpt lat="47.31196" lon="-1.54333">
        <ele>7</ele>
        <time>2023-06-21T09:23:54.682Z</time>
      </trkpt>
      <trkpt lat="47.31203" lon="-1.54302">
        <ele>7</ele>
        <time>2023-06-21T09:24:14.616Z</time>
      </trkpt>
      <trkpt lat="47.3121" lon="-1.54272">
        <ele>7</ele>
        <time>2023-06-21T09:24:33.972Z</time>
      </trkpt>
      <trkpt lat="47.31222" lon="-1.54252">
        <ele>6.7</ele>
        <time>2023-06-21T09:24:49.464Z</time>
      </trkpt>
      <trkpt lat="47.31212" lon="-1.54229">
        <ele>6</ele>
        <time>2023-06-21T09:25:04.342Z</time>
      </trkpt>
      <trkpt lat="47.312" lon="-1.54204">
        <ele>6</ele>
        <time>2023-06-21T09:25:23.030Z</time>
      </trkpt>
      <trkpt lat="47.31196" lon="-1.54194">
        <ele>6</ele>
        <time>2023-06-21T09:25:30.113Z</time>
      </trkpt>
      <trkpt lat="47.31187" lon="-1.54169">
        <ele>6</ele>
        <time>2023-06-21T09:25:47.382Z</time>
      </trkpt>
      <trkpt lat="47.3119" lon="-1.54141">
        <ele>6</ele>
        <time>2023-06-21T09:26:04.677Z</time>
      </trkpt>
      <trkpt lat="47.312" lon="-1.54115">
        <ele>6</ele>
        <time>2023-06-21T09:26:22.913Z</time>
      </trkpt>
      <trkpt lat="47.31213" lon="-1.54094">
        <ele>6.03</ele>
        <time>2023-06-21T09:26:40.346Z</time>
      </trkpt>
      <trkpt lat="47.31225" lon="-1.54074">
        <ele>7</ele>
        <time>2023-06-21T09:26:59.669Z</time>
      </trkpt>
      <trkpt lat="47.31238" lon="-1.54052">
        <ele>7.03</ele>
        <time>2023-06-21T09:27:17.556Z</time>
      </trkpt>
      <trkpt lat="47.31253" lon="-1.54027">
        <ele>10.99</ele>
        <time>2023-06-21T09:27:54.724Z</time>
      </trkpt>
      <trkpt lat="47.31265" lon="-1.53999">
        <ele>8</ele>
        <time>2023-06-21T09:28:12.407Z</time>
      </trkpt>
      <trkpt lat="47.31271" lon="-1.5397">
        <ele>8</ele>
        <time>2023-06-21T09:28:30.905Z</time>
      </trkpt>
      <trkpt lat="47.3127" lon="-1.53939">
        <ele>8</ele>
        <time>2023-06-21T09:28:49.838Z</time>
      </trkpt>
      <trkpt lat="47.3126" lon="-1.53914">
        <ele>9</ele>
        <time>2023-06-21T09:29:10.650Z</time>
      </trkpt>
      <trkpt lat="47.31251" lon="-1.53889">
        <ele>9</ele>
        <time>2023-06-21T09:29:27.919Z</time>
      </trkpt>
      <trkpt lat="47.31245" lon="-1.53861">
        <ele>9</ele>
        <time>2023-06-21T09:29:45.834Z</time>
      </trkpt>
      <trkpt lat="47.31249" lon="-1.53831">
        <ele>9.7</ele>
        <time>2023-06-21T09:30:06.577Z</time>
      </trkpt>
      <trkpt lat="47.31268" lon="-1.53819">
        <ele>9</ele>
        <time>2023-06-21T09:30:23.370Z</time>
      </trkpt>
      <trkpt lat="47.31287" lon="-1.53812">
        <ele>9</ele>
        <time>2023-06-21T09:30:40.992Z</time>
      </trkpt>
      <trkpt lat="47.31305" lon="-1.53805">
        <ele>9</ele>
        <time>2023-06-21T09:30:57.742Z</time>
      </trkpt>
      <trkpt lat="47.31322" lon="-1.53794">
        <ele>9.05</ele>
        <time>2023-06-21T09:31:14.586Z</time>
      </trkpt>
      <trkpt lat="47.3134" lon="-1.53788">
        <ele>11</ele>
        <time>2023-06-21T09:31:38.097Z</time>
      </trkpt>
      <trkpt lat="47.31359" lon="-1.53779">
        <ele>11</ele>
        <time>2023-06-21T09:31:56.053Z</time>
      </trkpt>
      <trkpt lat="47.31379" lon="-1.53768">
        <ele>11</ele>
        <time>2023-06-21T09:32:15.260Z</time>
      </trkpt>
      <trkpt lat="47.31399" lon="-1.53756">
        <ele>10.73</ele>
        <time>2023-06-21T09:32:33.961Z</time>
      </trkpt>
      <trkpt lat="47.31393" lon="-1.53731">
        <ele>8</ele>
        <time>2023-06-21T09:32:48.117Z</time>
      </trkpt>
      <trkpt lat="47.31377" lon="-1.53709">
        <ele>8</ele>
        <time>2023-06-21T09:33:07.800Z</time>
      </trkpt>
      <trkpt lat="47.31357" lon="-1.53705">
        <ele>8</ele>
        <time>2023-06-21T09:33:25.962Z</time>
      </trkpt>
      <trkpt lat="47.31338" lon="-1.53714">
        <ele>7.7</ele>
        <time>2023-06-21T09:33:43.114Z</time>
      </trkpt>
      <trkpt lat="47.31317" lon="-1.53713">
        <ele>7</ele>
        <time>2023-06-21T09:34:00.213Z</time>
      </trkpt>
      <trkpt lat="47.31305" lon="-1.53691">
        <ele>7</ele>
        <time>2023-06-21T09:34:17.439Z</time>
      </trkpt>
      <trkpt lat="47.31294" lon="-1.53665">
        <ele>6</ele>
        <time>2023-06-21T09:34:33.799Z</time>
      </trkpt>
      <trkpt lat="47.31292" lon="-1.53633">
        <ele>6</ele>
        <time>2023-06-21T09:34:53.404Z</time>
      </trkpt>
      <trkpt lat="47.31281" lon="-1.53606">
        <ele>6.01</ele>
        <time>2023-06-21T09:35:12.649Z</time>
      </trkpt>
      <trkpt lat="47.31265" lon="-1.53582">
        <ele>7.02</ele>
        <time>2023-06-21T09:35:36.271Z</time>
      </trkpt>
      <trkpt lat="47.31246" lon="-1.53569">
        <ele>9</ele>
        <time>2023-06-21T09:36:01.938Z</time>
      </trkpt>
      <trkpt lat="47.31232" lon="-1.53552">
        <ele>9</ele>
        <time>2023-06-21T09:36:18.256Z</time>
      </trkpt>
      <trkpt lat="47.31214" lon="-1.5355">
        <ele>9</ele>
        <time>2023-06-21T09:36:34.499Z</time>
      </trkpt>
      <trkpt lat="47.31193" lon="-1.53543">
        <ele>9</ele>
        <time>2023-06-21T09:36:53.872Z</time>
      </trkpt>
      <trkpt lat="47.31175" lon="-1.53537">
        <ele>8.91</ele>
        <time>2023-06-21T09:37:10.230Z</time>
      </trkpt>
      <trkpt lat="47.31156" lon="-1.53529">
        <ele>8</ele>
        <time>2023-06-21T09:37:25.788Z</time>
      </trkpt>
      <trkpt lat="47.31138" lon="-1.53521">
        <ele>8</ele>
        <time>2023-06-21T09:37:42.704Z</time>
      </trkpt>
      <trkpt lat="47.31121" lon="-1.53506">
        <ele>7.82</ele>
        <time>2023-06-21T09:38:00.041Z</time>
      </trkpt>
      <trkpt lat="47.31101" lon="-1.53491">
        <ele>6.01</ele>
        <time>2023-06-21T09:38:17.707Z</time>
      </trkpt>
      <trkpt lat="47.31081" lon="-1.5348">
        <ele>7</ele>
        <time>2023-06-21T09:38:39.955Z</time>
      </trkpt>
      <trkpt lat="47.31062" lon="-1.53479">
        <ele>7</ele>
        <time>2023-06-21T09:38:57.062Z</time>
      </trkpt>
      <trkpt lat="47.31042" lon="-1.53467">
        <ele>7</ele>
        <time>2023-06-21T09:39:16.491Z</time>
      </trkpt>
      <trkpt lat="47.31022" lon="-1.53464">
        <ele>7</ele>
        <time>2023-06-21T09:39:34.581Z</time>
      </trkpt>
      <trkpt lat="47.31002" lon="-1.53454">
        <ele>7.3</ele>
        <time>2023-06-21T09:39:54.440Z</time>
      </trkpt>
      <trkpt lat="47.30984" lon="-1.5344">
        <ele>8</ele>
        <time>2023-06-21T09:40:14.844Z</time>
      </trkpt>
      <trkpt lat="47.30967" lon="-1.53427">
        <ele>7.82</ele>
        <time>2023-06-21T09:40:31.586Z</time>
      </trkpt>
      <trkpt lat="47.30955" lon="-1.53403">
        <ele>6</ele>
        <time>2023-06-21T09:40:47.505Z</time>
      </trkpt>
      <trkpt lat="47.30942" lon="-1.53375">
        <ele>6</ele>
        <time>2023-06-21T09:41:08.210Z</time>
      </trkpt>
      <trkpt lat="47.30927" lon="-1.53349">
        <ele>6</ele>
        <time>2023-06-21T09:41:29.038Z</time>
      </trkpt>
      <trkpt lat="47.30916" lon="-1.53328">
        <ele>6</ele>
        <time>2023-06-21T09:41:45.229Z</time>
      </trkpt>
      <trkpt lat="47.30903" lon="-1.53305">
        <ele>6</ele>
        <time>2023-06-21T09:42:03.498Z</time>
      </trkpt>
      <trkpt lat="47.30883" lon="-1.53304">
        <ele>6</ele>
        <time>2023-06-21T09:42:21.505Z</time>
      </trkpt>
      <trkpt lat="47.30861" lon="-1.53311">
        <ele>6</ele>
        <time>2023-06-21T09:42:41.756Z</time>
      </trkpt>
      <trkpt lat="47.30843" lon="-1.53316">
        <ele>6.09</ele>
        <time>2023-06-21T09:42:58.490Z</time>
      </trkpt>
      <trkpt lat="47.30823" lon="-1.53318">
        <ele>7</ele>
        <time>2023-06-21T09:43:19.317Z</time>
      </trkpt>
      <trkpt lat="47.30805" lon="-1.5333">
        <ele>7.36</ele>
        <time>2023-06-21T09:43:38.130Z</time>
      </trkpt>
      <trkpt lat="47.30787" lon="-1.53347">
        <ele>11</ele>
        <time>2023-06-21T09:44:12.612Z</time>
      </trkpt>
      <trkpt lat="47.3078" lon="-1.53374">
        <ele>11</ele>
        <time>2023-06-21T09:44:30.249Z</time>
      </trkpt>
      <trkpt lat="47.30763" lon="-1.53389">
        <ele>10.97</ele>
        <time>2023-06-21T09:44:47.992Z</time>
      </trkpt>
      <trkpt lat="47.30744" lon="-1.53394">
        <ele>7</ele>
        <time>2023-06-21T09:45:03.188Z</time>
      </trkpt>
      <trkpt lat="47.30725" lon="-1.53405">
        <ele>7</ele>
        <time>2023-06-21T09:45:21.555Z</time>
      </trkpt>
      <trkpt lat="47.30706" lon="-1.53412">
        <ele>7</ele>
        <time>2023-06-21T09:45:39.177Z</time>
      </trkpt>
      <trkpt lat="47.30686" lon="-1.53411">
        <ele>7.01</ele>
        <time>2023-06-21T09:45:57.212Z</time>
      </trkpt>
      <trkpt lat="47.30667" lon="-1.53419">
        <ele>8.6</ele>
        <time>2023-06-21T09:46:20.284Z</time>
      </trkpt>
      <trkpt lat="47.30647" lon="-1.5342">
        <ele>10</ele>
        <time>2023-06-21T09:46:42.836Z</time>
      </trkpt>
      <trkpt lat="47.30625" lon="-1.53426">
        <ele>10</ele>
        <time>2023-06-21T09:47:02.968Z</time>
      </trkpt>
      <trkpt lat="47.30607" lon="-1.53443">
        <ele>10</ele>
        <time>2023-06-21T09:47:22.201Z</time>
      </trkpt>
      <trkpt lat="47.30595" lon="-1.53465">
        <ele>9.97</ele>
        <time>2023-06-21T09:47:39.346Z</time>
      </trkpt>
      <trkpt lat="47.30578" lon="-1.53482">
        <ele>9</ele>
        <time>2023-06-21T09:47:55.518Z</time>
      </trkpt>
      <trkpt lat="47.30558" lon="-1.53471">
        <ele>9</ele>
        <time>2023-06-21T09:48:14.725Z</time>
      </trkpt>
      <trkpt lat="47.30539" lon="-1.53454">
        <ele>9</ele>
        <time>2023-06-21T09:48:34.723Z</time>
      </trkpt>
      <trkpt lat="47.3052" lon="-1.53453">
        <ele>9</ele>
        <time>2023-06-21T09:48:51.830Z</time>
      </trkpt>
      <trkpt lat="47.305" lon="-1.53455">
        <ele>9</ele>
        <time>2023-06-21T09:49:09.868Z</time>
      </trkpt>
      <trkpt lat="47.30481" lon="-1.5346">
        <ele>9</ele>
        <time>2023-06-21T09:49:27.235Z</time>
      </trkpt>
      <trkpt lat="47.30462" lon="-1.53464">
        <ele>9</ele>
        <time>2023-06-21T09:49:44.505Z</time>
      </trkpt>
      <trkpt lat="47.30442" lon="-1.53471">
        <ele>9</ele>
        <time>2023-06-21T09:50:03.002Z</time>
      </trkpt>
      <trkpt lat="47.30421" lon="-1.53485">
        <ele>9.09</ele>
        <time>2023-06-21T09:50:23.991Z</time>
      </trkpt>
      <trkpt lat="47.30403" lon="-1.53491">
        <ele>10</ele>
        <time>2023-06-21T09:50:43.410Z</time>
      </trkpt>
      <trkpt lat="47.30387" lon="-1.53477">
        <ele>10</ele>
        <time>2023-06-21T09:51:00.151Z</time>
      </trkpt>
      <trkpt lat="47.30381" lon="-1.53446">
        <ele>9.99</ele>
        <time>2023-06-21T09:51:19.795Z</time>
      </trkpt>
      <trkpt lat="47.30374" lon="-1.5342">
        <ele>9.1</ele>
        <time>2023-06-21T09:51:34.730Z</time>
      </trkpt>
      <trkpt lat="47.30359" lon="-1.53393">
        <ele>7</ele>
        <time>2023-06-21T09:51:53.366Z</time>
      </trkpt>
      <trkpt lat="47.30349" lon="-1.53369">
        <ele>7</ele>
        <time>2023-06-21T09:52:10.554Z</time>
      </trkpt>
      <trkpt lat="47.30338" lon="-1.53339">
        <ele>7.45</ele>
        <time>2023-06-21T09:52:32.665Z</time>
      </trkpt>
      <trkpt lat="47.30323" lon="-1.53318">
        <ele>12</ele>
        <time>2023-06-21T09:53:13.157Z</time>
      </trkpt>
      <trkpt lat="47.30309" lon="-1.53298">
        <ele>12</ele>
        <time>2023-06-21T09:53:30.696Z</time>
      </trkpt>
      <trkpt lat="47.30287" lon="-1.53297">
        <ele>12</ele>
        <time>2023-06-21T09:53:50.502Z</time>
      </trkpt>
      <trkpt lat="47.30275" lon="-1.53269">
        <ele>11.94</ele>
        <time>2023-06-21T09:54:10.548Z</time>
      </trkpt>
      <trkpt lat="47.30264" lon="-1.53244">
        <ele>4.02</ele>
        <time>2023-06-21T09:54:26.460Z</time>
      </trkpt>
      <trkpt lat="47.30253" lon="-1.5322">
        <ele>6.1</ele>
        <time>2023-06-21T09:54:51.505Z</time>
      </trkpt>
      <trkpt lat="47.30234" lon="-1.53213">
        <ele>11</ele>
        <time>2023-06-21T09:55:34.827Z</time>
      </trkpt>
      <trkpt lat="47.30214" lon="-1.53208">
        <ele>11</ele>
        <time>2023-06-21T09:55:53.080Z</time>
      </trkpt>
      <trkpt lat="47.3019" lon="-1.532">
        <ele>11</ele>
        <time>2023-06-21T09:56:15.221Z</time>
      </trkpt>
      <trkpt lat="47.30167" lon="-1.53199">
        <ele>12.2</ele>
        <time>2023-06-21T09:56:39.662Z</time>
      </trkpt>
      <trkpt lat="47.30148" lon="-1.53197">
        <ele>15</ele>
        <time>2023-06-21T09:57:07.825Z</time>
      </trkpt>
      <trkpt lat="47.30129" lon="-1.53188">
        <ele>15</ele>
        <time>2023-06-21T09:57:25.783Z</time>
      </trkpt>
      <trkpt lat="47.30105" lon="-1.53181">
        <ele>15.01</ele>
        <time>2023-06-21T09:57:47.824Z</time>
      </trkpt>
      <trkpt lat="47.30083" lon="-1.53177">
        <ele>18</ele>
        <time>2023-06-21T09:58:19.176Z</time>
      </trkpt>
      <trkpt lat="47.30062" lon="-1.53173">
        <ele>18</ele>
        <time>2023-06-21T09:58:38.229Z</time>
      </trkpt>
      <trkpt lat="47.30042" lon="-1.53171">
        <ele>18</ele>
        <time>2023-06-21T09:58:56.267Z</time>
      </trkpt>
      <trkpt lat="47.30021" lon="-1.53173">
        <ele>17.99</ele>
        <time>2023-06-21T09:59:15.175Z</time>
      </trkpt>
      <trkpt lat="47.30003" lon="-1.53181">
        <ele>17.1</ele>
        <time>2023-06-21T09:59:29.977Z</time>
      </trkpt>
      <trkpt lat="47.29985" lon="-1.53187">
        <ele>15</ele>
        <time>2023-06-21T09:59:44.507Z</time>
      </trkpt>
      <trkpt lat="47.29968" lon="-1.53193">
        <ele>15</ele>
        <time>2023-06-21T10:00:00.236Z</time>
      </trkpt>
      <trkpt lat="47.2995" lon="-1.53211">
        <ele>15</ele>
        <time>2023-06-21T10:00:19.806Z</time>
      </trkpt>
      <trkpt lat="47.29939" lon="-1.53235">
        <ele>15.11</ele>
        <time>2023-06-21T10:00:37.791Z</time>
      </trkpt>
      <trkpt lat="47.29935" lon="-1.53263">
        <ele>19</ele>
        <time>2023-06-21T10:01:12.958Z</time>
      </trkpt>
      <trkpt lat="47.29931" lon="-1.5329">
        <ele>18.98</ele>
        <time>2023-06-21T10:01:29.768Z</time>
      </trkpt>
      <trkpt lat="47.29917" lon="-1.53308">
        <ele>16.9</ele>
        <time>2023-06-21T10:01:44.393Z</time>
      </trkpt>
      <trkpt lat="47.29898" lon="-1.53305">
        <ele>12</ele>
        <time>2023-06-21T10:01:59.438Z</time>
      </trkpt>
      <trkpt lat="47.29883" lon="-1.53286">
        <ele>12</ele>
        <time>2023-06-21T10:02:17.231Z</time>
      </trkpt>
      <trkpt lat="47.29863" lon="-1.53285">
        <ele>12</ele>
        <time>2023-06-21T10:02:35.238Z</time>
      </trkpt>
      <trkpt lat="47.29843" lon="-1.53295">
        <ele>11.92</ele>
        <time>2023-06-21T10:02:54.022Z</time>
      </trkpt>
      <trkpt lat="47.29823" lon="-1.53306">
        <ele>9</ele>
        <time>2023-06-21T10:03:10.828Z</time>
      </trkpt>
      <trkpt lat="47.29805" lon="-1.53319">
        <ele>9.05</ele>
        <time>2023-06-21T10:03:29.003Z</time>
      </trkpt>
      <trkpt lat="47.29796" lon="-1.53346">
        <ele>11</ele>
        <time>2023-06-21T10:03:54.097Z</time>
      </trkpt>
      <trkpt lat="47.29785" lon="-1.53369">
        <ele>11</ele>
        <time>2023-06-21T10:04:11.272Z</time>
      </trkpt>
      <trkpt lat="47.29767" lon="-1.53358">
        <ele>10.99</ele>
        <time>2023-06-21T10:04:28.777Z</time>
      </trkpt>
      <trkpt lat="47.29747" lon="-1.53364">
        <ele>6</ele>
        <time>2023-06-21T10:04:44.847Z</time>
      </trkpt>
      <trkpt lat="47.29728" lon="-1.53376">
        <ele>6</ele>
        <time>2023-06-21T10:05:03.446Z</time>
      </trkpt>
      <trkpt lat="47.2971" lon="-1.53386">
        <ele>6</ele>
        <time>2023-06-21T10:05:20.754Z</time>
      </trkpt>
      <trkpt lat="47.2969" lon="-1.53393">
        <ele>6</ele>
        <time>2023-06-21T10:05:39.251Z</time>
      </trkpt>
      <trkpt lat="47.29672" lon="-1.53403">
        <ele>5.84</ele>
        <time>2023-06-21T10:05:56.124Z</time>
      </trkpt>
      <trkpt lat="47.29657" lon="-1.5342">
        <ele>7</ele>
        <time>2023-06-21T10:06:16.837Z</time>
      </trkpt>
      <trkpt lat="47.29641" lon="-1.53436">
        <ele>7</ele>
        <time>2023-06-21T10:06:34.233Z</time>
      </trkpt>
      <trkpt lat="47.29627" lon="-1.53457">
        <ele>7</ele>
        <time>2023-06-21T10:06:52.204Z</time>
      </trkpt>
      <trkpt lat="47.29616" lon="-1.53483">
        <ele>7</ele>
        <time>2023-06-21T10:07:10.905Z</time>
      </trkpt>
      <trkpt lat="47.29606" lon="-1.53507">
        <ele>10</ele>
        <time>2023-06-21T10:07:40.224Z</time>
      </trkpt>
      <trkpt lat="47.29598" lon="-1.5354">
        <ele>10</ele>
        <time>2023-06-21T10:08:01.610Z</time>
      </trkpt>
      <trkpt lat="47.29589" lon="-1.53563">
        <ele>10.02</ele>
        <time>2023-06-21T10:08:17.871Z</time>
      </trkpt>
      <trkpt lat="47.29577" lon="-1.53586">
        <ele>13</ele>
        <time>2023-06-21T10:08:47.450Z</time>
      </trkpt>
      <trkpt lat="47.29566" lon="-1.53614">
        <ele>13</ele>
        <time>2023-06-21T10:09:07.197Z</time>
      </trkpt>
      <trkpt lat="47.29548" lon="-1.53636">
        <ele>13</ele>
        <time>2023-06-21T10:09:28.235Z</time>
      </trkpt>
      <trkpt lat="47.29533" lon="-1.53655">
        <ele>13</ele>
        <time>2023-06-21T10:09:46.030Z</time>
      </trkpt>
      <trkpt lat="47.29515" lon="-1.53666">
        <ele>13.11</ele>
        <time>2023-06-21T10:10:03.871Z</time>
      </trkpt>
      <trkpt lat="47.29494" lon="-1.53671">
        <ele>10</ele>
        <time>2023-06-21T10:10:20.619Z</time>
      </trkpt>
      <trkpt lat="47.29472" lon="-1.53674">
        <ele>10</ele>
        <time>2023-06-21T10:10:40.500Z</time>
      </trkpt>
      <trkpt lat="47.2945" lon="-1.53685">
        <ele>10</ele>
        <time>2023-06-21T10:11:01.404Z</time>
      </trkpt>
      <trkpt lat="47.29434" lon="-1.53699">
        <ele>10</ele>
        <time>2023-06-21T10:11:18.145Z</time>
      </trkpt>
      <trkpt lat="47.29425" lon="-1.53724">
        <ele>10.02</ele>
        <time>2023-06-21T10:11:35.474Z</time>
      </trkpt>
      <trkpt lat="47.2942" lon="-1.53759">
        <ele>12.99</ele>
        <time>2023-06-21T10:12:08.275Z</time>
      </trkpt>
      <trkpt lat="47.29417" lon="-1.5379">
        <ele>11.5</ele>
        <time>2023-06-21T10:12:24.997Z</time>
      </trkpt>
      <trkpt lat="47.29413" lon="-1.53819">
        <ele>8.05</ele>
        <time>2023-06-21T10:12:40.800Z</time>
      </trkpt>
      <trkpt lat="47.2941" lon="-1.53847">
        <ele>10</ele>
        <time>2023-06-21T10:13:04.933Z</time>
      </trkpt>
      <trkpt lat="47.29409" lon="-1.53878">
        <ele>10</ele>
        <time>2023-06-21T10:13:23.873Z</time>
      </trkpt>
      <trkpt lat="47.2941" lon="-1.53905">
        <ele>9.91</ele>
        <time>2023-06-21T10:13:40.129Z</time>
      </trkpt>
      <trkpt lat="47.29409" lon="-1.53939">
        <ele>9</ele>
        <time>2023-06-21T10:13:58.579Z</time>
      </trkpt>
      <trkpt lat="47.29405" lon="-1.53969">
        <ele>9</ele>
        <time>2023-06-21T10:14:17.238Z</time>
      </trkpt>
      <trkpt lat="47.29391" lon="-1.53986">
        <ele>9</ele>
        <time>2023-06-21T10:14:33.558Z</time>
      </trkpt>
      <trkpt lat="47.29374" lon="-1.53977">
        <ele>9</ele>
        <time>2023-06-21T10:14:49.811Z</time>
      </trkpt>
      <trkpt lat="47.29371" lon="-1.53951">
        <ele>9</ele>
        <time>2023-06-21T10:15:05.907Z</time>
      </trkpt>
      <trkpt lat="47.29371" lon="-1.53918">
        <ele>9.3</ele>
        <time>2023-06-21T10:15:26.902Z</time>
      </trkpt>
      <trkpt lat="47.29369" lon="-1.53889">
        <ele>10</ele>
        <time>2023-06-21T10:15:46.789Z</time>
      </trkpt>
      <trkpt lat="47.29366" lon="-1.53861">
        <ele>9.98</ele>
        <time>2023-06-21T10:16:04.034Z</time>
      </trkpt>
      <trkpt lat="47.29365" lon="-1.53831">
        <ele>8</ele>
        <time>2023-06-21T10:16:20.074Z</time>
      </trkpt>
      <trkpt lat="47.29361" lon="-1.53803">
        <ele>8</ele>
        <time>2023-06-21T10:16:37.538Z</time>
      </trkpt>
      <trkpt lat="47.29359" lon="-1.53775">
        <ele>7.99</ele>
        <time>2023-06-21T10:16:54.693Z</time>
      </trkpt>
      <trkpt lat="47.29357" lon="-1.53742">
        <ele>7</ele>
        <time>2023-06-21T10:17:12.413Z</time>
      </trkpt>
      <trkpt lat="47.29344" lon="-1.53721">
        <ele>7</ele>
        <time>2023-06-21T10:17:29.765Z</time>
      </trkpt>
      <trkpt lat="47.29329" lon="-1.53706">
        <ele>7</ele>
        <time>2023-06-21T10:17:46.074Z</time>
      </trkpt>
      <trkpt lat="47.29308" lon="-1.53704">
        <ele>7</ele>
        <time>2023-06-21T10:18:05.010Z</time>
      </trkpt>
      <trkpt lat="47.29291" lon="-1.53714">
        <ele>7</ele>
        <time>2023-06-21T10:18:21.479Z</time>
      </trkpt>
      <trkpt lat="47.2928" lon="-1.53692">
        <ele>7</ele>
        <time>2023-06-21T10:18:38.160Z</time>
      </trkpt>
      <trkpt lat="47.29265" lon="-1.53672">
        <ele>6.91</ele>
        <time>2023-06-21T10:18:56.111Z</time>
      </trkpt>
      <trkpt lat="47.29252" lon="-1.53651">
        <ele>6</ele>
        <time>2023-06-21T10:19:11.295Z</time>
      </trkpt>
      <trkpt lat="47.29236" lon="-1.53637">
        <ele>6</ele>
        <time>2023-06-21T10:19:28.036Z</time>
      </trkpt>
      <trkpt lat="47.29219" lon="-1.53622">
        <ele>6</ele>
        <time>2023-06-21T10:19:45.864Z</time>
      </trkpt>
      <trkpt lat="47.29205" lon="-1.53604">
        <ele>6</ele>
        <time>2023-06-21T10:20:02.578Z</time>
      </trkpt>
      <trkpt lat="47.29188" lon="-1.53591">
        <ele>6.01</ele>
        <time>2023-06-21T10:20:19.838Z</time>
      </trkpt>
      <trkpt lat="47.29171" lon="-1.53588">
        <ele>6.8</ele>
        <time>2023-06-21T10:20:37.670Z</time>
      </trkpt>
      <trkpt lat="47.29153" lon="-1.53573">
        <ele>10</ele>
        <time>2023-06-21T10:21:09.135Z</time>
      </trkpt>
      <trkpt lat="47.29139" lon="-1.53549">
        <ele>10</ele>
        <time>2023-06-21T10:21:28.455Z</time>
      </trkpt>
      <trkpt lat="47.29127" lon="-1.53522">
        <ele>9.98</ele>
        <time>2023-06-21T10:21:48.101Z</time>
      </trkpt>
      <trkpt lat="47.29109" lon="-1.535">
        <ele>3</ele>
        <time>2023-06-21T10:22:06.510Z</time>
      </trkpt>
      <trkpt lat="47.29097" lon="-1.53481">
        <ele>3.24</ele>
        <time>2023-06-21T10:22:23.040Z</time>
      </trkpt>
      <trkpt lat="47.29078" lon="-1.53466">
        <ele>12</ele>
        <time>2023-06-21T10:23:52.887Z</time>
      </trkpt>
      <trkpt lat="47.29059" lon="-1.53445">
        <ele>12</ele>
        <time>2023-06-21T10:24:14.254Z</time>
      </trkpt>
      <trkpt lat="47.29042" lon="-1.5343">
        <ele>11.98</ele>
        <time>2023-06-21T10:24:32.026Z</time>
      </trkpt>
      <trkpt lat="47.29023" lon="-1.53419">
        <ele>9.9</ele>
        <time>2023-06-21T10:24:48.098Z</time>
      </trkpt>
      <trkpt lat="47.29005" lon="-1.53408">
        <ele>5.72</ele>
        <time>2023-06-21T10:25:03.440Z</time>
      </trkpt>
      <trkpt lat="47.28989" lon="-1.53394">
        <ele>13</ele>
        <time>2023-06-21T10:26:16.760Z</time>
      </trkpt>
      <trkpt lat="47.28973" lon="-1.53381">
        <ele>13</ele>
        <time>2023-06-21T10:26:33.199Z</time>
      </trkpt>
      <trkpt lat="47.28957" lon="-1.53366">
        <ele>13</ele>
        <time>2023-06-21T10:26:50.260Z</time>
      </trkpt>
      <trkpt lat="47.28939" lon="-1.53354">
        <ele>13</ele>
        <time>2023-06-21T10:27:08.036Z</time>
      </trkpt>
      <trkpt lat="47.2892" lon="-1.53338">
        <ele>12.43</ele>
        <time>2023-06-21T10:27:26.232Z</time>
      </trkpt>
      <trkpt lat="47.28903" lon="-1.53325">
        <ele>9</ele>
        <time>2023-06-21T10:27:41.310Z</time>
      </trkpt>
      <trkpt lat="47.28884" lon="-1.53313">
        <ele>9</ele>
        <time>2023-06-21T10:27:59.910Z</time>
      </trkpt>
      <trkpt lat="47.28868" lon="-1.533">
        <ele>9</ele>
        <time>2023-06-21T10:28:16.348Z</time>
      </trkpt>
      <trkpt lat="47.28851" lon="-1.53315">
        <ele>9</ele>
        <time>2023-06-21T10:28:34.176Z</time>
      </trkpt>
      <trkpt lat="47.28831" lon="-1.53327">
        <ele>11</ele>
        <time>2023-06-21T10:29:00.463Z</time>
      </trkpt>
      <trkpt lat="47.28811" lon="-1.53327">
        <ele>11.05</ele>
        <time>2023-06-21T10:29:18.599Z</time>
      </trkpt>
      <trkpt lat="47.28791" lon="-1.5334">
        <ele>13</ele>
        <time>2023-06-21T10:29:44.898Z</time>
      </trkpt>
      <trkpt lat="47.28774" lon="-1.53356">
        <ele>13.01</ele>
        <time>2023-06-21T10:30:03.074Z</time>
      </trkpt>
      <trkpt lat="47.28752" lon="-1.5337">
        <ele>13.9</ele>
        <time>2023-06-21T10:30:27.313Z</time>
      </trkpt>
      <trkpt lat="47.28733" lon="-1.53385">
        <ele>16</ele>
        <time>2023-06-21T10:30:53.993Z</time>
      </trkpt>
      <trkpt lat="47.28716" lon="-1.534">
        <ele>16</ele>
        <time>2023-06-21T10:31:11.820Z</time>
      </trkpt>
      <trkpt lat="47.28696" lon="-1.53413">
        <ele>16.05</ele>
        <time>2023-06-21T10:31:31.628Z</time>
      </trkpt>
      <trkpt lat="47.28676" lon="-1.53423">
        <ele>18</ele>
        <time>2023-06-21T10:31:57.312Z</time>
      </trkpt>
      <trkpt lat="47.28655" lon="-1.53435">
        <ele>18</ele>
        <time>2023-06-21T10:32:17.579Z</time>
      </trkpt>
      <trkpt lat="47.28636" lon="-1.53442">
        <ele>18</ele>
        <time>2023-06-21T10:32:35.201Z</time>
      </trkpt>
      <trkpt lat="47.28615" lon="-1.53443">
        <ele>18</ele>
        <time>2023-06-21T10:32:54.107Z</time>
      </trkpt>
      <trkpt lat="47.28594" lon="-1.53441">
        <ele>18.09</ele>
        <time>2023-06-21T10:33:13.295Z</time>
      </trkpt>
      <trkpt lat="47.28575" lon="-1.53453">
        <ele>19</ele>
        <time>2023-06-21T10:33:34.675Z</time>
      </trkpt>
      <trkpt lat="47.28563" lon="-1.53475">
        <ele>19</ele>
        <time>2023-06-21T10:33:51.906Z</time>
      </trkpt>
      <trkpt lat="47.28553" lon="-1.53502">
        <ele>18</ele>
        <time>2023-06-21T10:34:08.336Z</time>
      </trkpt>
      <trkpt lat="47.28542" lon="-1.53526">
        <ele>18</ele>
        <time>2023-06-21T10:34:26.016Z</time>
      </trkpt>
      <trkpt lat="47.28527" lon="-1.53544">
        <ele>18</ele>
        <time>2023-06-21T10:34:43.420Z</time>
      </trkpt>
      <trkpt lat="47.28512" lon="-1.53563">
        <ele>18.01</ele>
        <time>2023-06-21T10:35:01.243Z</time>
      </trkpt>
      <trkpt lat="47.28504" lon="-1.53589">
        <ele>19.27</ele>
        <time>2023-06-21T10:35:22.713Z</time>
      </trkpt>
      <trkpt lat="47.28496" lon="-1.53615">
        <ele>22</ele>
        <time>2023-06-21T10:35:50.719Z</time>
      </trkpt>
      <trkpt lat="47.28489" lon="-1.53641">
        <ele>22</ele>
        <time>2023-06-21T10:36:07.794Z</time>
      </trkpt>
      <trkpt lat="47.28478" lon="-1.53669">
        <ele>22</ele>
        <time>2023-06-21T10:36:27.544Z</time>
      </trkpt>
      <trkpt lat="47.28462" lon="-1.53688">
        <ele>22</ele>
        <time>2023-06-21T10:36:46.032Z</time>
      </trkpt>
      <trkpt lat="47.28445" lon="-1.53675">
        <ele>22</ele>
        <time>2023-06-21T10:37:03.264Z</time>
      </trkpt>
      <trkpt lat="47.28428" lon="-1.53658">
        <ele>22.16</ele>
        <time>2023-06-21T10:37:22.200Z</time>
      </trkpt>
      <trkpt lat="47.2841" lon="-1.53647">
        <ele>28</ele>
        <time>2023-06-21T10:38:15.116Z</time>
      </trkpt>
      <trkpt lat="47.28391" lon="-1.53629">
        <ele>28</ele>
        <time>2023-06-21T10:38:35.439Z</time>
      </trkpt>
      <trkpt lat="47.28382" lon="-1.53603">
        <ele>27.95</ele>
        <time>2023-06-21T10:38:53.119Z</time>
      </trkpt>
      <trkpt lat="47.28376" lon="-1.53572">
        <ele>26</ele>
        <time>2023-06-21T10:39:10.337Z</time>
      </trkpt>
      <trkpt lat="47.28369" lon="-1.53543">
        <ele>26</ele>
        <time>2023-06-21T10:39:29.126Z</time>
      </trkpt>
      <trkpt lat="47.28377" lon="-1.53514">
        <ele>25.84</ele>
        <time>2023-06-21T10:39:47.800Z</time>
      </trkpt>
      <trkpt lat="47.28383" lon="-1.53489">
        <ele>20</ele>
        <time>2023-06-21T10:40:01.964Z</time>
      </trkpt>
      <trkpt lat="47.28391" lon="-1.53464">
        <ele>20</ele>
        <time>2023-06-21T10:40:18.837Z</time>
      </trkpt>
      <trkpt lat="47.28396" lon="-1.53439">
        <ele>19.98</ele>
        <time>2023-06-21T10:40:34.691Z</time>
      </trkpt>
      <trkpt lat="47.284" lon="-1.53409">
        <ele>18</ele>
        <time>2023-06-21T10:40:51.021Z</time>
      </trkpt>
      <trkpt lat="47.284" lon="-1.53377">
        <ele>18</ele>
        <time>2023-06-21T10:41:10.554Z</time>
      </trkpt>
      <trkpt lat="47.28381" lon="-1.53371">
        <ele>18</ele>
        <time>2023-06-21T10:41:28.039Z</time>
      </trkpt>
      <trkpt lat="47.28361" lon="-1.53374">
        <ele>18</ele>
        <time>2023-06-21T10:41:46.129Z</time>
      </trkpt>
      <trkpt lat="47.28339" lon="-1.53374">
        <ele>19.8</ele>
        <time>2023-06-21T10:42:11.936Z</time>
      </trkpt>
      <trkpt lat="47.28315" lon="-1.53381">
        <ele>24</ele>
        <time>2023-06-21T10:42:51.612Z</time>
      </trkpt>
      <trkpt lat="47.28294" lon="-1.53375">
        <ele>24</ele>
        <time>2023-06-21T10:43:10.860Z</time>
      </trkpt>
      <trkpt lat="47.28274" lon="-1.53384">
        <ele>24</ele>
        <time>2023-06-21T10:43:29.676Z</time>
      </trkpt>
      <trkpt lat="47.28254" lon="-1.53381">
        <ele>24.03</ele>
        <time>2023-06-21T10:43:47.849Z</time>
      </trkpt>
      <trkpt lat="47.2825" lon="-1.5335">
        <ele>28</ele>
        <time>2023-06-21T10:44:24.446Z</time>
      </trkpt>
      <trkpt lat="47.28241" lon="-1.5332">
        <ele>28</ele>
        <time>2023-06-21T10:44:44.469Z</time>
      </trkpt>
      <trkpt lat="47.28232" lon="-1.53293">
        <ele>28</ele>
        <time>2023-06-21T10:45:02.833Z</time>
      </trkpt>
      <trkpt lat="47.28225" lon="-1.53264">
        <ele>27.86</ele>
        <time>2023-06-21T10:45:21.240Z</time>
      </trkpt>
      <trkpt lat="47.28221" lon="-1.53232">
        <ele>23</ele>
        <time>2023-06-21T10:45:38.620Z</time>
      </trkpt>
      <trkpt lat="47.28215" lon="-1.532">
        <ele>23</ele>
        <time>2023-06-21T10:45:58.887Z</time>
      </trkpt>
      <trkpt lat="47.28202" lon="-1.53171">
        <ele>22.73</ele>
        <time>2023-06-21T10:46:19.375Z</time>
      </trkpt>
      <trkpt lat="47.28194" lon="-1.53146">
        <ele>20</ele>
        <time>2023-06-21T10:46:34.139Z</time>
      </trkpt>
      <trkpt lat="47.28187" lon="-1.53114">
        <ele>20</ele>
        <time>2023-06-21T10:46:54.664Z</time>
      </trkpt>
      <trkpt lat="47.28173" lon="-1.53094">
        <ele>20.18</ele>
        <time>2023-06-21T10:47:12.715Z</time>
      </trkpt>
      <trkpt lat="47.28161" lon="-1.53072">
        <ele>22</ele>
        <time>2023-06-21T10:47:36.225Z</time>
      </trkpt>
      <trkpt lat="47.28143" lon="-1.53066">
        <ele>22</ele>
        <time>2023-06-21T10:47:52.831Z</time>
      </trkpt>
      <trkpt lat="47.28123" lon="-1.53067">
        <ele>22</ele>
        <time>2023-06-21T10:48:10.838Z</time>
      </trkpt>
      <trkpt lat="47.28104" lon="-1.53066">
        <ele>22</ele>
        <time>2023-06-21T10:48:27.945Z</time>
      </trkpt>
      <trkpt lat="47.28086" lon="-1.53068">
        <ele>21.7</ele>
        <time>2023-06-21T10:48:43.386Z</time>
      </trkpt>
      <trkpt lat="47.28075" lon="-1.5309">
        <ele>23</ele>
        <time>2023-06-21T10:49:04.291Z</time>
      </trkpt>
      <trkpt lat="47.28073" lon="-1.53117">
        <ele>23</ele>
        <time>2023-06-21T10:49:20.871Z</time>
      </trkpt>
      <trkpt lat="47.28071" lon="-1.53147">
        <ele>23.05</ele>
        <time>2023-06-21T10:49:39.412Z</time>
      </trkpt>
      <trkpt lat="47.2807" lon="-1.53179">
        <ele>25</ele>
        <time>2023-06-21T10:50:05.606Z</time>
      </trkpt>
      <trkpt lat="47.28073" lon="-1.53206">
        <ele>25</ele>
        <time>2023-06-21T10:50:22.308Z</time>
      </trkpt>
      <trkpt lat="47.28071" lon="-1.53237">
        <ele>25.09</ele>
        <time>2023-06-21T10:50:41.569Z</time>
      </trkpt>
      <trkpt lat="47.2807" lon="-1.53266">
        <ele>26</ele>
        <time>2023-06-21T10:51:02.089Z</time>
      </trkpt>
      <trkpt lat="47.28069" lon="-1.53296">
        <ele>26</ele>
        <time>2023-06-21T10:51:20.424Z</time>
      </trkpt>
      <trkpt lat="47.2807" lon="-1.53324">
        <ele>26</ele>
        <time>2023-06-21T10:51:37.541Z</time>
      </trkpt>
      <trkpt lat="47.28067" lon="-1.53353">
        <ele>26</ele>
        <time>2023-06-21T10:51:55.448Z</time>
      </trkpt>
      <trkpt lat="47.28072" lon="-1.53384">
        <ele>26</ele>
        <time>2023-06-21T10:52:14.900Z</time>
      </trkpt>
      <trkpt lat="47.28077" lon="-1.53413">
        <ele>25.7</ele>
        <time>2023-06-21T10:52:32.360Z</time>
      </trkpt>
      <trkpt lat="47.28082" lon="-1.53439">
        <ele>25</ele>
        <time>2023-06-21T10:52:47.068Z</time>
      </trkpt>
      <trkpt lat="47.2808" lon="-1.53469">
        <ele>25.09</ele>
        <time>2023-06-21T10:53:05.721Z</time>
      </trkpt>
      <trkpt lat="47.28087" lon="-1.53497">
        <ele>25.7</ele>
        <time>2023-06-21T10:53:25.743Z</time>
      </trkpt>
      <trkpt lat="47.28084" lon="-1.53525">
        <ele>24.7</ele>
        <time>2023-06-21T10:53:40.885Z</time>
      </trkpt>
      <trkpt lat="47.28063" lon="-1.53533">
        <ele>24</ele>
        <time>2023-06-21T10:53:58.591Z</time>
      </trkpt>
      <trkpt lat="47.28045" lon="-1.53541">
        <ele>24</ele>
        <time>2023-06-21T10:54:15.508Z</time>
      </trkpt>
      <trkpt lat="47.28025" lon="-1.5354">
        <ele>24</ele>
        <time>2023-06-21T10:54:33.515Z</time>
      </trkpt>
      <trkpt lat="47.28" lon="-1.53538">
        <ele>23.7</ele>
        <time>2023-06-21T10:54:55.234Z</time>
      </trkpt>
      <trkpt lat="47.27981" lon="-1.5355">
        <ele>23</ele>
        <time>2023-06-21T10:55:12.029Z</time>
      </trkpt>
      <trkpt lat="47.27965" lon="-1.53568">
        <ele>22.97</ele>
        <time>2023-06-21T10:55:30.057Z</time>
      </trkpt>
      <trkpt lat="47.27956" lon="-1.53596">
        <ele>22</ele>
        <time>2023-06-21T10:55:46.607Z</time>
      </trkpt>
      <trkpt lat="47.27952" lon="-1.53623">
        <ele>22</ele>
        <time>2023-06-21T10:56:03.478Z</time>
      </trkpt>
      <trkpt lat="47.2795" lon="-1.53655">
        <ele>21.91</ele>
        <time>2023-06-21T10:56:22.849Z</time>
      </trkpt>
      <trkpt lat="47.27953" lon="-1.53685">
        <ele>21</ele>
        <time>2023-06-21T10:56:39.063Z</time>
      </trkpt>
      <trkpt lat="47.27939" lon="-1.53704">
        <ele>21</ele>
        <time>2023-06-21T10:56:56.187Z</time>
      </trkpt>
      <trkpt lat="47.2792" lon="-1.53707">
        <ele>20.4</ele>
        <time>2023-06-21T10:57:11.826Z</time>
      </trkpt>
      <trkpt lat="47.279" lon="-1.53702">
        <ele>19</ele>
        <time>2023-06-21T10:57:27.798Z</time>
      </trkpt>
      <trkpt lat="47.27881" lon="-1.53702">
        <ele>19</ele>
        <time>2023-06-21T10:57:44.895Z</time>
      </trkpt>
      <trkpt lat="47.27858" lon="-1.537">
        <ele>18.99</ele>
        <time>2023-06-21T10:58:05.599Z</time>
      </trkpt>
      <trkpt lat="47.27838" lon="-1.53697">
        <ele>18.1</ele>
        <time>2023-06-21T10:58:21.442Z</time>
      </trkpt>
      <trkpt lat="47.27818" lon="-1.53694">
        <ele>16</ele>
        <time>2023-06-21T10:58:37.270Z</time>
      </trkpt>
      <trkpt lat="47.27798" lon="-1.53687">
        <ele>16</ele>
        <time>2023-06-21T10:58:55.767Z</time>
      </trkpt>
      <trkpt lat="47.27777" lon="-1.53677">
        <ele>16.08</ele>
        <time>2023-06-21T10:59:15.849Z</time>
      </trkpt>
      <trkpt lat="47.27762" lon="-1.5366">
        <ele>18.97</ele>
        <time>2023-06-21T10:59:44.426Z</time>
      </trkpt>
      <trkpt lat="47.2775" lon="-1.53636">
        <ele>15</ele>
        <time>2023-06-21T11:00:00.352Z</time>
      </trkpt>
      <trkpt lat="47.27739" lon="-1.53607">
        <ele>15.02</ele>
        <time>2023-06-21T11:00:20.690Z</time>
      </trkpt>
      <trkpt lat="47.2773" lon="-1.53579">
        <ele>17</ele>
        <time>2023-06-21T11:00:46.421Z</time>
      </trkpt>
      <trkpt lat="47.27722" lon="-1.53554">
        <ele>17</ele>
        <time>2023-06-21T11:01:03.295Z</time>
      </trkpt>
      <trkpt lat="47.27702" lon="-1.53553">
        <ele>17</ele>
        <time>2023-06-21T11:01:21.302Z</time>
      </trkpt>
      <trkpt lat="47.27681" lon="-1.53556">
        <ele>17</ele>
        <time>2023-06-21T11:01:40.287Z</time>
      </trkpt>
      <trkpt lat="47.27661" lon="-1.53555">
        <ele>19</ele>
        <time>2023-06-21T11:02:05.276Z</time>
      </trkpt>
      <trkpt lat="47.27659" lon="-1.53528">
        <ele>19</ele>
        <time>2023-06-21T11:02:21.858Z</time>
      </trkpt>
      <trkpt lat="47.27653" lon="-1.53501">
        <ele>19</ele>
        <time>2023-06-21T11:02:39.203Z</time>
      </trkpt>
      <trkpt lat="47.27652" lon="-1.53471">
        <ele>19</ele>
        <time>2023-06-21T11:02:57.540Z</time>
      </trkpt>
      <trkpt lat="47.27649" lon="-1.53443">
        <ele>18.99</ele>
        <time>2023-06-21T11:03:14.818Z</time>
      </trkpt>
      <trkpt lat="47.27645" lon="-1.53415">
        <ele>18</ele>
        <time>2023-06-21T11:03:30.103Z</time>
      </trkpt>
      <trkpt lat="47.27641" lon="-1.53386">
        <ele>18</ele>
        <time>2023-06-21T11:03:48.170Z</time>
      </trkpt>
      <trkpt lat="47.27637" lon="-1.53355">
        <ele>17.95</ele>
        <time>2023-06-21T11:04:07.297Z</time>
      </trkpt>
      <trkpt lat="47.27635" lon="-1.53326">
        <ele>16</ele>
        <time>2023-06-21T11:04:22.868Z</time>
      </trkpt>
      <trkpt lat="47.27637" lon="-1.53297">
        <ele>16</ele>
        <time>2023-06-21T11:04:40.664Z</time>
      </trkpt>
      <trkpt lat="47.27635" lon="-1.53268">
        <ele>16.03</ele>
        <time>2023-06-21T11:04:58.543Z</time>
      </trkpt>
      <trkpt lat="47.27633" lon="-1.53238">
        <ele>17</ele>
        <time>2023-06-21T11:05:19.933Z</time>
      </trkpt>
      <trkpt lat="47.27631" lon="-1.5321">
        <ele>17</ele>
        <time>2023-06-21T11:05:37.121Z</time>
      </trkpt>
      <trkpt lat="47.2762" lon="-1.53182">
        <ele>17.03</ele>
        <time>2023-06-21T11:05:56.958Z</time>
      </trkpt>
      <trkpt lat="47.27609" lon="-1.53156">
        <ele>18</ele>
        <time>2023-06-21T11:06:18.645Z</time>
      </trkpt>
      <trkpt lat="47.27604" lon="-1.53125">
        <ele>18</ele>
        <time>2023-06-21T11:06:38.098Z</time>
      </trkpt>
      <trkpt lat="47.276" lon="-1.53097">
        <ele>17.46</ele>
        <time>2023-06-21T11:06:54.157Z</time>
      </trkpt>
      <trkpt lat="47.27595" lon="-1.53071">
        <ele>12</ele>
        <time>2023-06-21T11:07:08.593Z</time>
      </trkpt>
      <trkpt lat="47.27579" lon="-1.53047">
        <ele>11</ele>
        <time>2023-06-21T11:07:26.608Z</time>
      </trkpt>
      <trkpt lat="47.27559" lon="-1.53051">
        <ele>11</ele>
        <time>2023-06-21T11:07:44.770Z</time>
      </trkpt>
      <trkpt lat="47.27543" lon="-1.53063">
        <ele>11</ele>
        <time>2023-06-21T11:08:00.924Z</time>
      </trkpt>
      <trkpt lat="47.27524" lon="-1.53065">
        <ele>11</ele>
        <time>2023-06-21T11:08:18.064Z</time>
      </trkpt>
      <trkpt lat="47.2751" lon="-1.53089">
        <ele>6.7</ele>
        <time>2023-06-21T11:08:36.941Z</time>
      </trkpt>
      <trkpt lat="47.27495" lon="-1.53101">
        <ele>6.9</ele>
        <time>2023-06-21T11:08:59.930Z</time>
      </trkpt>
      <trkpt lat="47.27477" lon="-1.53118">
        <ele>6.8</ele>
        <time>2023-06-21T11:09:18.084Z</time>
      </trkpt>
      <trkpt lat="47.27467" lon="-1.53131">
        <ele>7</ele>
        <time>2023-06-21T11:09:38.007Z</time>
      </trkpt>
      <trkpt lat="47.27448" lon="-1.53149">
        <ele>6.6</ele>
        <time>2023-06-21T11:09:53.948Z</time>
      </trkpt>
      <trkpt lat="47.27432" lon="-1.53162">
        <ele>6.7</ele>
        <time>2023-06-21T11:10:16.217Z</time>
      </trkpt>
      <trkpt lat="47.27415" lon="-1.53183">
        <ele>7.5</ele>
        <time>2023-06-21T11:11:26.435Z</time>
      </trkpt>
      <trkpt lat="47.27397" lon="-1.53201">
        <ele>7.5</ele>
        <time>2023-06-21T11:11:43.179Z</time>
      </trkpt>
      <trkpt lat="47.2738" lon="-1.53216">
        <ele>7.1</ele>
        <time>2023-06-21T11:12:00.413Z</time>
      </trkpt>
      <trkpt lat="47.27372" lon="-1.53246">
        <ele>7.3</ele>
        <time>2023-06-21T11:12:17.811Z</time>
      </trkpt>
      <trkpt lat="47.27376" lon="-1.53298">
        <ele>7.9</ele>
        <time>2023-06-21T11:12:34.273Z</time>
      </trkpt>
      <trkpt lat="47.27373" lon="-1.53342">
        <ele>8.9</ele>
        <time>2023-06-21T11:12:54.535Z</time>
      </trkpt>
      <trkpt lat="47.27362" lon="-1.53363">
        <ele>10.1</ele>
        <time>2023-06-21T11:13:10.065Z</time>
      </trkpt>
      <trkpt lat="47.27357" lon="-1.53411">
        <ele>10.8</ele>
      </trkpt>
      <trkpt lat="47.27365" lon="-1.53445">
        <ele>12.3</ele>
      </trkpt>
      <trkpt lat="47.27382" lon="-1.53456">
        <ele>13.8</ele>
      </trkpt>
      <trkpt lat="47.27445" lon="-1.53534">
        <ele>17.3</ele>
      </trkpt>
      <trkpt lat="47.27443" lon="-1.53578">
        <ele>19.5</ele>
      </trkpt>
      <trkpt lat="47.27439" lon="-1.53616">
        <ele>20.6</ele>
      </trkpt>
      <trkpt lat="47.27455" lon="-1.53634">
        <ele>21.4</ele>
      </trkpt>
      <trkpt lat="47.27462" lon="-1.53662">
        <ele>22.5</ele>
      </trkpt>
      <trkpt lat="47.27455" lon="-1.53683">
        <ele>22.7</ele>
      </trkpt>
      <trkpt lat="47.27385" lon="-1.53736">
        <ele>19.7</ele>
      </trkpt>
      <trkpt lat="47.27314" lon="-1.53781">
        <ele>17.1</ele>
      </trkpt>
      <trkpt lat="47.27287" lon="-1.53788">
        <ele>17.8</ele>
      </trkpt>
      <trkpt lat="47.27231" lon="-1.53678">
        <ele>15.6</ele>
        <time>2023-06-21T11:18:52.960Z</time>
      </trkpt>
      <trkpt lat="47.27209" lon="-1.53685">
        <ele>15.2</ele>
      </trkpt>
      <trkpt lat="47.27138" lon="-1.53652">
        <ele>10.4</ele>
      </trkpt>
      <trkpt lat="47.27098" lon="-1.53622">
        <ele>6.8</ele>
        <time>2023-06-21T11:19:10.316Z</time>
      </trkpt>
      <trkpt lat="47.27088" lon="-1.5363">
        <ele>13.9</ele>
        <time>2023-06-21T11:19:24.501Z</time>
      </trkpt>
      <trkpt lat="47.27069" lon="-1.53637">
        <ele>9</ele>
        <time>2023-06-21T11:19:39.921Z</time>
      </trkpt>
      <trkpt lat="47.27047" lon="-1.53644">
        <ele>9</ele>
        <time>2023-06-21T11:20:00.173Z</time>
      </trkpt>
      <trkpt lat="47.27031" lon="-1.53658">
        <ele>9.08</ele>
        <time>2023-06-21T11:20:17.140Z</time>
      </trkpt>
      <trkpt lat="47.27016" lon="-1.53682">
        <ele>12</ele>
        <time>2023-06-21T11:20:48.115Z</time>
      </trkpt>
      <trkpt lat="47.2701" lon="-1.53708">
        <ele>12</ele>
        <time>2023-06-21T11:21:04.883Z</time>
      </trkpt>
      <trkpt lat="47.27005" lon="-1.5374">
        <ele>12.48</ele>
        <time>2023-06-21T11:21:26.326Z</time>
      </trkpt>
      <trkpt lat="47.27" lon="-1.53766">
        <ele>11.02</ele>
        <time>2023-06-21T11:21:40.764Z</time>
      </trkpt>
      <trkpt lat="47.27" lon="-1.53797">
        <ele>13.1</ele>
        <time>2023-06-21T11:22:06.934Z</time>
      </trkpt>
      <trkpt lat="47.27005" lon="-1.53824">
        <ele>18</ele>
        <time>2023-06-21T11:22:50.312Z</time>
      </trkpt>
      <trkpt lat="47.27011" lon="-1.5385">
        <ele>18</ele>
        <time>2023-06-21T11:23:07.079Z</time>
      </trkpt>
      <trkpt lat="47.26993" lon="-1.53849">
        <ele>17.99</ele>
        <time>2023-06-21T11:23:23.260Z</time>
      </trkpt>
      <trkpt lat="47.26975" lon="-1.53842">
        <ele>17.37</ele>
        <time>2023-06-21T11:23:38.411Z</time>
      </trkpt>
      <trkpt lat="47.26954" lon="-1.53828">
        <ele>11</ele>
        <time>2023-06-21T11:23:56.558Z</time>
      </trkpt>
      <trkpt lat="47.26933" lon="-1.53832">
        <ele>11.06</ele>
        <time>2023-06-21T11:24:15.779Z</time>
      </trkpt>
      <trkpt lat="47.26914" lon="-1.53839">
        <ele>21</ele>
        <time>2023-06-21T11:25:48.299Z</time>
      </trkpt>
      <trkpt lat="47.26894" lon="-1.53844">
        <ele>21</ele>
        <time>2023-06-21T11:26:06.553Z</time>
      </trkpt>
      <trkpt lat="47.26873" lon="-1.53846">
        <ele>21</ele>
        <time>2023-06-21T11:26:25.489Z</time>
      </trkpt>
      <trkpt lat="47.26853" lon="-1.53846">
        <ele>20.99</ele>
        <time>2023-06-21T11:26:43.457Z</time>
      </trkpt>
      <trkpt lat="47.26834" lon="-1.5385">
        <ele>20.1</ele>
        <time>2023-06-21T11:26:58.569Z</time>
      </trkpt>
      <trkpt lat="47.26813" lon="-1.53855">
        <ele>18</ele>
        <time>2023-06-21T11:27:15.318Z</time>
      </trkpt>
      <trkpt lat="47.26791" lon="-1.53857">
        <ele>18</ele>
        <time>2023-06-21T11:27:35.152Z</time>
      </trkpt>
      <trkpt lat="47.26773" lon="-1.53858">
        <ele>17.99</ele>
        <time>2023-06-21T11:27:51.332Z</time>
      </trkpt>
      <trkpt lat="47.26755" lon="-1.53873">
        <ele>17.37</ele>
        <time>2023-06-21T11:28:08.328Z</time>
      </trkpt>
      <trkpt lat="47.26742" lon="-1.53894">
        <ele>11</ele>
        <time>2023-06-21T11:28:23.515Z</time>
      </trkpt>
      <trkpt lat="47.26725" lon="-1.53904">
        <ele>11</ele>
        <time>2023-06-21T11:28:39.986Z</time>
      </trkpt>
      <trkpt lat="47.26702" lon="-1.53903">
        <ele>11</ele>
        <time>2023-06-21T11:29:00.691Z</time>
      </trkpt>
      <trkpt lat="47.26682" lon="-1.53906">
        <ele>10.99</ele>
        <time>2023-06-21T11:29:18.752Z</time>
      </trkpt>
      <trkpt lat="47.26663" lon="-1.53904">
        <ele>10</ele>
        <time>2023-06-21T11:29:33.750Z</time>
      </trkpt>
      <trkpt lat="47.26645" lon="-1.5391">
        <ele>10</ele>
        <time>2023-06-21T11:29:50.356Z</time>
      </trkpt>
      <trkpt lat="47.26624" lon="-1.53912">
        <ele>10.01</ele>
        <time>2023-06-21T11:30:09.320Z</time>
      </trkpt>
      <trkpt lat="47.26605" lon="-1.53917">
        <ele>19.99</ele>
        <time>2023-06-21T11:31:40.498Z</time>
      </trkpt>
      <trkpt lat="47.26589" lon="-1.5393">
        <ele>19.37</ele>
        <time>2023-06-21T11:31:55.340Z</time>
      </trkpt>
      <trkpt lat="47.26573" lon="-1.5395">
        <ele>13</ele>
        <time>2023-06-21T11:32:11.859Z</time>
      </trkpt>
      <trkpt lat="47.26566" lon="-1.5398">
        <ele>13</ele>
        <time>2023-06-21T11:32:31.230Z</time>
      </trkpt>
      <trkpt lat="47.26556" lon="-1.54002">
        <ele>14.4</ele>
        <time>2023-06-21T11:32:52.031Z</time>
      </trkpt>
      <trkpt lat="47.26536" lon="-1.53989">
        <ele>13</ele>
        <time>2023-06-21T11:33:09.242Z</time>
      </trkpt>
      <trkpt lat="47.26517" lon="-1.53981">
        <ele>12.94</ele>
        <time>2023-06-21T11:33:26.858Z</time>
      </trkpt>
      <trkpt lat="47.26497" lon="-1.53972">
        <ele>6</ele>
        <time>2023-06-21T11:33:43.322Z</time>
      </trkpt>
      <trkpt lat="47.26488" lon="-1.53995">
        <ele>7.2</ele>
        <time>2023-06-21T11:34:03.399Z</time>
      </trkpt>
      <trkpt lat="47.26496" lon="-1.5402">
        <ele>10.45</ele>
        <time>2023-06-21T11:34:34.003Z</time>
      </trkpt>
      <trkpt lat="47.26506" lon="-1.54048">
        <ele>15</ele>
        <time>2023-06-21T11:35:14.709Z</time>
      </trkpt>
      <trkpt lat="47.26517" lon="-1.5407">
        <ele>15.03</ele>
        <time>2023-06-21T11:35:31.479Z</time>
      </trkpt>
      <trkpt lat="47.26529" lon="-1.54098">
        <ele>16</ele>
        <time>2023-06-21T11:35:54.659Z</time>
      </trkpt>
      <trkpt lat="47.26541" lon="-1.54122">
        <ele>16</ele>
        <time>2023-06-21T11:36:12.862Z</time>
      </trkpt>
      <trkpt lat="47.26552" lon="-1.54148">
        <ele>16.01</ele>
        <time>2023-06-21T11:36:31.599Z</time>
      </trkpt>
      <trkpt lat="47.26559" lon="-1.54173">
        <ele>17</ele>
        <time>2023-06-21T11:36:51.208Z</time>
      </trkpt>
      <trkpt lat="47.26572" lon="-1.54198">
        <ele>17.03</ele>
        <time>2023-06-21T11:37:10.523Z</time>
      </trkpt>
      <trkpt lat="47.26584" lon="-1.54221">
        <ele>21</ele>
        <time>2023-06-21T11:37:46.368Z</time>
      </trkpt>
      <trkpt lat="47.26597" lon="-1.54248">
        <ele>21</ele>
        <time>2023-06-21T11:38:06.584Z</time>
      </trkpt>
      <trkpt lat="47.26609" lon="-1.54271">
        <ele>21</ele>
        <time>2023-06-21T11:38:24.299Z</time>
      </trkpt>
      <trkpt lat="47.26619" lon="-1.54301">
        <ele>21</ele>
        <time>2023-06-21T11:38:44.708Z</time>
      </trkpt>
      <trkpt lat="47.26626" lon="-1.54332">
        <ele>21.6</ele>
        <time>2023-06-21T11:39:06.422Z</time>
      </trkpt>
      <trkpt lat="47.26625" lon="-1.54361">
        <ele>23</ele>
        <time>2023-06-21T11:39:28.709Z</time>
      </trkpt>
      <trkpt lat="47.26606" lon="-1.5437">
        <ele>23</ele>
        <time>2023-06-21T11:39:46.667Z</time>
      </trkpt>
      <trkpt lat="47.26587" lon="-1.54374">
        <ele>22.7</ele>
        <time>2023-06-21T11:40:03.134Z</time>
      </trkpt>
      <trkpt lat="47.26573" lon="-1.54395">
        <ele>22.03</ele>
        <time>2023-06-21T11:40:19.380Z</time>
      </trkpt>
      <trkpt lat="47.26575" lon="-1.54428">
        <ele>23.02</ele>
        <time>2023-06-21T11:40:42.636Z</time>
      </trkpt>
      <trkpt lat="47.26583" lon="-1.54454">
        <ele>25</ele>
        <time>2023-06-21T11:41:07.019Z</time>
      </trkpt>
      <trkpt lat="47.26602" lon="-1.54471">
        <ele>25</ele>
        <time>2023-06-21T11:41:27.021Z</time>
      </trkpt>
      <trkpt lat="47.26624" lon="-1.5447">
        <ele>25</ele>
        <time>2023-06-21T11:41:46.826Z</time>
      </trkpt>
      <trkpt lat="47.26642" lon="-1.54466">
        <ele>25</ele>
        <time>2023-06-21T11:42:03.206Z</time>
      </trkpt>
      <trkpt lat="47.26662" lon="-1.54467">
        <ele>25.9</ele>
        <time>2023-06-21T11:42:23.969Z</time>
      </trkpt>
      <trkpt lat="47.26682" lon="-1.54464">
        <ele>28</ele>
        <time>2023-06-21T11:42:49.473Z</time>
      </trkpt>
      <trkpt lat="47.26702" lon="-1.54469">
        <ele>28</ele>
        <time>2023-06-21T11:43:07.726Z</time>
      </trkpt>
      <trkpt lat="47.26723" lon="-1.54477">
        <ele>28</ele>
        <time>2023-06-21T11:43:27.244Z</time>
      </trkpt>
      <trkpt lat="47.26743" lon="-1.5449">
        <ele>28.09</ele>
        <time>2023-06-21T11:43:47.165Z</time>
      </trkpt>
      <trkpt lat="47.26759" lon="-1.54511">
        <ele>29</ele>
        <time>2023-06-21T11:44:09.215Z</time>
      </trkpt>
      <trkpt lat="47.26779" lon="-1.54517">
        <ele>29</ele>
        <time>2023-06-21T11:44:27.580Z</time>
      </trkpt>
      <trkpt lat="47.26798" lon="-1.54535">
        <ele>29</ele>
        <time>2023-06-21T11:44:47.905Z</time>
      </trkpt>
      <trkpt lat="47.26813" lon="-1.54552">
        <ele>29.02</ele>
        <time>2023-06-21T11:45:04.988Z</time>
      </trkpt>
      <trkpt lat="47.2683" lon="-1.54561">
        <ele>29.9</ele>
        <time>2023-06-21T11:45:23.960Z</time>
      </trkpt>
      <trkpt lat="47.26853" lon="-1.5456">
        <ele>32</ele>
        <time>2023-06-21T11:45:51.841Z</time>
      </trkpt>
      <trkpt lat="47.26887" lon="-1.54536">
        <ele>30.3</ele>
      </trkpt>
      <trkpt lat="47.26898" lon="-1.54507">
        <ele>29.2</ele>
      </trkpt>
      <trkpt lat="47.26909" lon="-1.54474">
        <ele>28.1</ele>
      </trkpt>
      <trkpt lat="47.26896" lon="-1.54472">
        <ele>28</ele>
      </trkpt>
    </trkseg>
  </trk>
</gpx>